Peotone Weather
Station Historical Data
 
Daily Summary for July 29, 2014 Units:  English    Metric   Both
« Previous Day
Next Day »
Daily Weekly Monthly Yearly Custom
  Current: High: Low: Average:
Temperature: 65.1 °F 79.9 °F 53.9 °F 65.5 °F
Dew Point: 59.1 °F 63.9 °F 51.6 °F 57.1 °F
Humidity: 81% 93% 50% 76%
Wind Speed: 5.8mph 19.5mph 0.0mph 5.3mph
Wind Gust: 5.8mph 29.9mph - -
WindWest - - West
Pressure: 30.01 in 30.07 in 30.00 in -
Precipitation: 0.09 in      
Historical Graphs
 
 
Tabular Data for July 29, 2014
Time Temperature Dew Point Pressure Wind Wind Speed Wind Gust Humidity Rainfall Rate (Hourly) solar Conditions
00:01 56.5 °F 52.0 °F 30.05 in Calm   2.3 mph 85% 0.00 in 0.00 W/m2
00:03 56.4 °F 52.0 °F 30.05 in Calm   1.1 mph 85% 0.00 in 0.00 W/m2
00:04 56.3 °F 51.9 °F 30.05 in Calm   1.1 mph 85% 0.00 in 0.00 W/m2
00:06 56.3 °F 51.9 °F 30.05 in Calm     85% 0.00 in 0.00 W/m2
00:07 56.3 °F 51.9 °F 30.05 in Calm     85% 0.00 in 0.00 W/m2
00:08 56.3 °F 51.9 °F 30.05 in Calm     85% 0.00 in 0.00 W/m2
00:09 56.3 °F 51.9 °F 30.05 in Calm     85% 0.00 in 0.00 W/m2
00:12 56.3 °F 51.9 °F 30.05 in Calm     85% 0.00 in 0.00 W/m2
00:13 56.3 °F 51.9 °F 30.05 in Calm     85% 0.00 in 0.00 W/m2
00:15 56.2 °F 51.8 °F 30.05 in Calm     85% 0.00 in 0.00 W/m2
00:16 56.2 °F 51.8 °F 30.05 in Calm     85% 0.00 in 0.00 W/m2
00:18 56.2 °F 51.8 °F 30.06 in Calm     85% 0.00 in 0.00 W/m2
00:19 56.1 °F 51.7 °F 30.05 in Calm     85% 0.00 in 0.00 W/m2
00:20 56.1 °F 51.7 °F 30.05 in Calm     85% 0.00 in 0.00 W/m2
00:22 56.1 °F 51.7 °F 30.06 in Calm   1.1 mph 85% 0.00 in 0.00 W/m2
00:23 56.1 °F 51.7 °F 30.06 in Calm   1.1 mph 85% 0.00 in 0.00 W/m2
00:24 56.1 °F 51.7 °F 30.06 in Calm   1.1 mph 85% 0.00 in 0.00 W/m2
00:25 56.1 °F 51.7 °F 30.06 in Calm   1.1 mph 85% 0.00 in 0.00 W/m2
00:26 56.1 °F 51.7 °F 30.06 in Calm   1.1 mph 85% 0.00 in 0.00 W/m2
00:28 56.2 °F 51.8 °F 30.06 in Calm   1.1 mph 85% 0.00 in 0.00 W/m2
00:29 56.2 °F 51.8 °F 30.06 in Calm   1.1 mph 85% 0.00 in 0.00 W/m2
00:30 56.2 °F 51.8 °F 30.06 in Calm   1.1 mph 85% 0.00 in 0.00 W/m2
00:32 56.3 °F 51.9 °F 30.06 in ENE 1.1 mph 1.1 mph 85% 0.00 in 0.00 W/m2
00:34 56.3 °F 51.9 °F 30.05 in Calm   1.1 mph 85% 0.00 in 0.00 W/m2
00:35 56.3 °F 51.9 °F 30.05 in Calm   2.3 mph 85% 0.00 in 0.00 W/m2
00:37 56.4 °F 52.0 °F 30.06 in Calm   1.1 mph 85% 0.00 in 0.00 W/m2
00:38 56.4 °F 52.0 °F 30.05 in Calm   1.1 mph 85% 0.00 in 0.00 W/m2
00:39 56.4 °F 52.0 °F 30.05 in ENE 2.3 mph 2.3 mph 85% 0.00 in 0.00 W/m2
00:41 56.5 °F 52.0 °F 30.05 in Calm     85% 0.00 in 0.00 W/m2
00:42 56.5 °F 52.0 °F 30.06 in Calm     85% 0.00 in 0.00 W/m2
00:43 56.5 °F 52.0 °F 30.05 in Calm     85% 0.00 in 0.00 W/m2
00:45 56.4 °F 52.0 °F 30.05 in Calm   1.1 mph 85% 0.00 in 0.00 W/m2
00:46 56.4 °F 52.0 °F 30.05 in Calm   1.1 mph 85% 0.00 in 0.00 W/m2
00:47 56.3 °F 51.9 °F 30.05 in Calm     85% 0.00 in 0.00 W/m2
00:49 56.3 °F 51.9 °F 30.05 in Calm     85% 0.00 in 0.00 W/m2
00:50 56.3 °F 51.9 °F 30.05 in Calm   2.3 mph 85% 0.00 in 0.00 W/m2
00:51 56.2 °F 51.8 °F 30.05 in Calm     85% 0.00 in 0.00 W/m2
00:53 56.2 °F 51.8 °F 30.05 in Calm     85% 0.00 in 0.00 W/m2
00:54 56.2 °F 51.8 °F 30.05 in ENE 1.1 mph 1.1 mph 85% 0.00 in 0.00 W/m2
00:55 56.3 °F 51.9 °F 30.05 in ENE 2.3 mph 2.3 mph 85% 0.00 in 0.00 W/m2
00:56 56.2 °F 51.8 °F 30.05 in Calm   2.3 mph 85% 0.00 in 0.00 W/m2
00:58 56.2 °F 51.8 °F 30.05 in ENE 1.1 mph 2.3 mph 85% 0.00 in 0.00 W/m2
00:59 56.2 °F 51.8 °F 30.05 in ENE 2.3 mph 2.3 mph 85% 0.00 in 0.00 W/m2
01:00 56.2 °F 51.8 °F 30.05 in ENE 1.1 mph 2.3 mph 85% 0.00 in 0.00 W/m2
01:02 56.2 °F 51.8 °F 30.05 in Calm   1.1 mph 85% 0.00 in 0.00 W/m2
01:04 56.2 °F 51.8 °F 30.05 in Calm   2.3 mph 85% 0.00 in 0.00 W/m2
01:05 56.2 °F 51.8 °F 30.05 in Calm   2.3 mph 85% 0.00 in 0.00 W/m2
01:06 56.2 °F 51.8 °F 30.05 in Calm     85% 0.00 in 0.00 W/m2
01:08 56.1 °F 51.7 °F 30.05 in Calm   2.3 mph 85% 0.00 in 0.00 W/m2
01:09 56.1 °F 51.7 °F 30.05 in Calm   2.3 mph 85% 0.00 in 0.00 W/m2
01:11 56.1 °F 51.7 °F 30.05 in Calm   2.3 mph 85% 0.00 in 0.00 W/m2
01:12 56.2 °F 51.8 °F 30.05 in Calm   3.4 mph 85% 0.00 in 0.00 W/m2
01:13 56.2 °F 51.8 °F 30.05 in ENE 1.1 mph 3.4 mph 85% 0.00 in 0.00 W/m2
01:14 56.2 °F 51.8 °F 30.05 in Calm   3.4 mph 85% 0.00 in 0.00 W/m2
01:16 56.2 °F 51.8 °F 30.05 in Calm   3.4 mph 85% 0.00 in 0.00 W/m2
01:17 56.3 °F 51.9 °F 30.05 in Calm   3.4 mph 85% 0.00 in 0.00 W/m2
01:19 56.3 °F 51.9 °F 30.05 in ENE 1.1 mph 3.4 mph 85% 0.00 in 0.00 W/m2
01:21 56.4 °F 52.0 °F 30.05 in Calm   1.1 mph 85% 0.00 in 0.00 W/m2
01:22 56.4 °F 52.0 °F 30.05 in Calm   1.1 mph 85% 0.00 in 0.00 W/m2
01:24 56.5 °F 52.0 °F 30.05 in ENE 3.4 mph 4.6 mph 85% 0.00 in 0.00 W/m2
01:25 56.5 °F 52.0 °F 30.05 in East 3.4 mph 4.6 mph 85% 0.00 in 0.00 W/m2
01:27 56.6 °F 52.2 °F 30.04 in East 5.8 mph 5.8 mph 85% 0.00 in 0.00 W/m2
01:28 56.6 °F 52.2 °F 30.05 in East 2.3 mph 5.8 mph 85% 0.00 in 0.00 W/m2
01:29 56.8 °F 52.3 °F 30.04 in East 2.3 mph 5.8 mph 85% 0.00 in 0.00 W/m2
01:30 56.8 °F 52.3 °F 30.04 in East 5.8 mph 5.8 mph 85% 0.00 in 0.00 W/m2
01:32 56.9 °F 52.4 °F 30.04 in Calm   5.8 mph 85% 0.00 in 0.00 W/m2
01:33 57.0 °F 52.5 °F 30.04 in East 2.3 mph 5.8 mph 85% 0.00 in 0.00 W/m2
01:34 57.1 °F 52.6 °F 30.04 in East 1.1 mph 5.8 mph 85% 0.00 in 0.00 W/m2
01:36 57.2 °F 52.4 °F 30.04 in East 2.3 mph 2.3 mph 84% 0.00 in 0.00 W/m2
01:37 57.3 °F 52.5 °F 30.04 in East 3.4 mph 3.4 mph 84% 0.00 in 0.00 W/m2
01:38 57.4 °F 52.6 °F 30.04 in East 1.1 mph 3.4 mph 84% 0.00 in 0.00 W/m2
01:39 57.5 °F 52.7 °F 30.04 in East 2.3 mph 3.4 mph 84% 0.00 in 0.00 W/m2
01:40 57.6 °F 52.8 °F 30.04 in Calm   3.4 mph 84% 0.00 in 0.00 W/m2
01:41 57.7 °F 52.6 °F 30.04 in East 2.3 mph 3.4 mph 83% 0.00 in 0.00 W/m2
01:43 57.7 °F 52.6 °F 30.04 in East 2.3 mph 3.4 mph 83% 0.00 in 0.00 W/m2
01:44 57.8 °F 52.7 °F 30.04 in East 2.3 mph 3.4 mph 83% 0.00 in 0.00 W/m2
01:45 57.8 °F 52.7 °F 30.04 in Calm   3.4 mph 83% 0.00 in 0.00 W/m2
01:46 57.8 °F 52.7 °F 30.04 in Calm   1.1 mph 83% 0.00 in 0.00 W/m2
01:47 57.9 °F 52.8 °F 30.04 in East 2.3 mph 2.3 mph 83% 0.00 in 0.00 W/m2
01:48 57.9 °F 52.8 °F 30.04 in East 1.1 mph 3.4 mph 83% 0.00 in 0.00 W/m2
01:50 57.9 °F 52.8 °F 30.04 in Calm   3.4 mph 83% 0.00 in 0.00 W/m2
01:52 58.0 °F 52.9 °F 30.04 in East 3.4 mph 3.4 mph 83% 0.00 in 0.00 W/m2
01:54 58.1 °F 53.0 °F 30.04 in East 2.3 mph 5.8 mph 83% 0.00 in 0.00 W/m2
01:55 58.2 °F 53.1 °F 30.04 in Calm   5.8 mph 83% 0.00 in 0.00 W/m2
01:57 58.3 °F 53.2 °F 30.04 in East 1.1 mph 3.4 mph 83% 0.00 in 0.00 W/m2
01:58 58.4 °F 53.3 °F 30.04 in Calm   3.4 mph 83% 0.00 in 0.00 W/m2
01:59 58.4 °F 53.3 °F 30.04 in East 2.3 mph 3.4 mph 83% 0.00 in 0.00 W/m2
02:00 58.5 °F 53.4 °F 30.04 in East 2.3 mph 3.4 mph 83% 0.00 in 0.00 W/m2
02:01 58.5 °F 53.4 °F 30.04 in East 1.1 mph 3.4 mph 83% 0.00 in 0.00 W/m2
02:04 58.7 °F 53.6 °F 30.04 in East 5.8 mph 5.8 mph 83% 0.00 in 0.00 W/m2
02:05 58.8 °F 53.7 °F 30.04 in East 2.3 mph 5.8 mph 83% 0.00 in 0.00 W/m2
02:06 58.8 °F 53.7 °F 30.04 in East 3.4 mph 5.8 mph 83% 0.00 in 0.00 W/m2
02:07 58.9 °F 53.8 °F 30.04 in East 2.3 mph 5.8 mph 83% 0.00 in 0.00 W/m2
02:08 58.9 °F 53.8 °F 30.03 in East 5.8 mph 5.8 mph 83% 0.00 in 0.00 W/m2
02:09 58.9 °F 53.8 °F 30.03 in ESE 3.4 mph 8.1 mph 83% 0.00 in 0.00 W/m2
02:10 59.0 °F 53.8 °F 30.03 in South 4.6 mph 8.1 mph 83% 0.00 in 0.00 W/m2
02:11 59.0 °F 53.8 °F 30.03 in South 4.6 mph 8.1 mph 83% 0.00 in 0.00 W/m2
02:12 59.1 °F 54.0 °F 30.03 in South 3.4 mph 4.6 mph 83% 0.00 in 0.00 W/m2
02:13 59.1 °F 54.0 °F 30.03 in South 3.4 mph 4.6 mph 83% 0.00 in 0.00 W/m2
02:15 59.1 °F 54.0 °F 30.04 in South 6.9 mph 6.9 mph 83% 0.00 in 0.00 W/m2
02:16 59.1 °F 54.0 °F 30.04 in SSW 6.9 mph 6.9 mph 83% 0.00 in 0.00 W/m2
02:18 59.1 °F 54.0 °F 30.04 in SSW 5.8 mph 5.8 mph 83% 0.00 in 0.00 W/m2
02:19 59.1 °F 54.0 °F 30.03 in SSW 3.4 mph 5.8 mph 83% 0.00 in 0.00 W/m2
02:20 59.0 °F 53.8 °F 30.04 in SSW 3.4 mph 5.8 mph 83% 0.00 in 0.00 W/m2
02:21 59.0 °F 53.8 °F 30.03 in SSW 2.3 mph 4.6 mph 83% 0.00 in 0.00 W/m2
02:22 59.0 °F 53.8 °F 30.03 in SSW 2.3 mph 4.6 mph 83% 0.00 in 0.00 W/m2
02:24 58.9 °F 53.8 °F 30.04 in SSW 3.4 mph 5.8 mph 83% 0.00 in 0.00 W/m2
02:25 58.9 °F 53.8 °F 30.04 in SSW 3.4 mph 5.8 mph 83% 0.00 in 0.00 W/m2
02:26 58.8 °F 54.0 °F 30.03 in SSW 3.4 mph 5.8 mph 84% 0.00 in 0.00 W/m2
02:27 58.7 °F 53.9 °F 30.03 in SSW 2.3 mph 4.6 mph 84% 0.00 in 0.00 W/m2
02:29 58.7 °F 53.9 °F 30.04 in SSW 4.6 mph 4.6 mph 84% 0.00 in 0.00 W/m2
02:30 58.6 °F 53.8 °F 30.03 in SSW 3.4 mph 5.8 mph 84% 0.00 in 0.00 W/m2
02:31 58.5 °F 53.7 °F 30.04 in SSW 2.3 mph 2.3 mph 84% 0.00 in 0.00 W/m2
02:32 58.4 °F 53.6 °F 30.04 in SSW 3.4 mph 5.8 mph 84% 0.00 in 0.00 W/m2
02:35 58.3 °F 53.8 °F 30.04 in SSW 3.4 mph 5.8 mph 85% 0.00 in 0.00 W/m2
02:36 58.2 °F 53.7 °F 30.04 in SW 2.3 mph 4.6 mph 85% 0.00 in 0.00 W/m2
02:37 58.2 °F 53.7 °F 30.04 in SW 2.3 mph 4.6 mph 85% 0.00 in 0.00 W/m2
02:38 58.1 °F 53.6 °F 30.04 in SW 3.4 mph 4.6 mph 85% 0.00 in 0.00 W/m2
02:40 58.0 °F 53.5 °F 30.04 in SW 2.3 mph 4.6 mph 85% 0.00 in 0.00 W/m2
02:41 57.9 °F 53.4 °F 30.04 in SW 2.3 mph 2.3 mph 85% 0.00 in 0.00 W/m2
02:42 57.9 °F 53.4 °F 30.04 in SW 2.3 mph 2.3 mph 85% 0.00 in 0.00 W/m2
02:43 57.8 °F 53.7 °F 30.04 in SW 2.3 mph 3.4 mph 86% 0.00 in 0.00 W/m2
02:45 57.7 °F 53.5 °F 30.04 in SW 2.3 mph 3.4 mph 86% 0.00 in 0.00 W/m2
02:46 57.6 °F 53.5 °F 30.03 in Calm   3.4 mph 86% 0.00 in 0.00 W/m2
02:47 57.5 °F 53.3 °F 30.04 in Calm   1.1 mph 86% 0.00 in 0.00 W/m2
02:49 57.4 °F 53.2 °F 30.03 in Calm   1.1 mph 86% 0.00 in 0.00 W/m2
02:50 57.3 °F 53.2 °F 30.03 in SW 2.3 mph 2.3 mph 86% 0.00 in 0.00 W/m2
02:51 57.3 °F 53.2 °F 30.03 in SW 2.3 mph 2.3 mph 86% 0.00 in 0.00 W/m2
02:52 57.2 °F 53.1 °F 30.03 in SW 2.3 mph 3.4 mph 86% 0.00 in 0.00 W/m2
02:55 57.1 °F 53.3 °F 30.03 in SW 2.3 mph 3.4 mph 87% 0.00 in 0.00 W/m2
02:56 57.0 °F 53.2 °F 30.03 in SW 1.1 mph 3.4 mph 87% 0.00 in 0.00 W/m2
02:58 56.9 °F 53.1 °F 30.03 in SW 1.1 mph 3.4 mph 87% 0.00 in 0.00 W/m2
02:59 56.9 °F 53.1 °F 30.03 in Calm   3.4 mph 87% 0.00 in 0.00 W/m2
03:01 56.8 °F 53.0 °F 30.03 in SW 2.3 mph 3.4 mph 87% 0.00 in 0.00 W/m2
03:02 56.8 °F 53.0 °F 30.03 in SW 3.4 mph 3.4 mph 87% 0.00 in 0.00 W/m2
03:03 56.7 °F 52.9 °F 30.03 in SW 2.3 mph 3.4 mph 87% 0.00 in 0.00 W/m2
03:04 56.7 °F 52.9 °F 30.03 in Calm   3.4 mph 87% 0.00 in 0.00 W/m2
03:06 56.7 °F 53.2 °F 30.03 in Calm     88% 0.00 in 0.00 W/m2
03:07 56.6 °F 53.1 °F 30.03 in Calm     88% 0.00 in 0.00 W/m2
03:08 56.6 °F 53.1 °F 30.03 in Calm     88% 0.00 in 0.00 W/m2
03:09 56.5 °F 53.0 °F 30.03 in Calm     88% 0.00 in 0.00 W/m2
03:11 56.3 °F 52.8 °F 30.03 in Calm     88% 0.00 in 0.00 W/m2
03:12 56.3 °F 52.8 °F 30.03 in Calm     88% 0.00 in 0.00 W/m2
03:13 56.3 °F 52.8 °F 30.03 in Calm     88% 0.00 in 0.00 W/m2
03:14 56.2 °F 52.7 °F 30.03 in SW 1.1 mph 1.1 mph 88% 0.00 in 0.00 W/m2
03:18 56.1 °F 52.9 °F 30.03 in Calm   3.4 mph 89% 0.00 in 0.00 W/m2
03:19 56.0 °F 52.8 °F 30.03 in Calm   3.4 mph 89% 0.00 in 0.00 W/m2
03:20 56.0 °F 52.8 °F 30.03 in Calm   3.4 mph 89% 0.00 in 0.00 W/m2
03:21 56.0 °F 52.8 °F 30.03 in Calm     89% 0.00 in 0.00 W/m2
03:23 56.0 °F 52.8 °F 30.03 in Calm     89% 0.00 in 0.00 W/m2
03:24 55.9 °F 52.7 °F 30.03 in SW 2.3 mph 3.4 mph 89% 0.00 in 0.00 W/m2
03:25 55.9 °F 52.7 °F 30.03 in SW 1.1 mph 3.4 mph 89% 0.00 in 0.00 W/m2
03:26 55.9 °F 52.7 °F 30.03 in SW 1.1 mph 3.4 mph 89% 0.00 in 0.00 W/m2
03:29 55.9 °F 52.7 °F 30.03 in Calm   2.3 mph 89% 0.00 in 0.00 W/m2
03:30 55.9 °F 52.7 °F 30.03 in Calm   2.3 mph 89% 0.00 in 0.00 W/m2
03:31 55.9 °F 52.7 °F 30.03 in Calm     89% 0.00 in 0.00 W/m2
03:33 55.9 °F 52.7 °F 30.04 in Calm   2.3 mph 89% 0.00 in 0.00 W/m2
03:34 55.8 °F 52.6 °F 30.03 in SW 1.1 mph 2.3 mph 89% 0.00 in 0.00 W/m2
03:35 55.8 °F 52.6 °F 30.03 in Calm   2.3 mph 89% 0.00 in 0.00 W/m2
03:36 55.8 °F 52.6 °F 30.04 in SW 1.1 mph 2.3 mph 89% 0.00 in 0.00 W/m2
03:39 55.7 °F 52.5 °F 30.03 in Calm     89% 0.00 in 0.00 W/m2
03:40 55.7 °F 52.5 °F 30.04 in Calm     89% 0.00 in 0.00 W/m2
03:41 55.7 °F 52.5 °F 30.03 in Calm     89% 0.00 in 0.00 W/m2
03:42 55.6 °F 52.4 °F 30.03 in Calm     89% 0.00 in 0.00 W/m2
03:46 55.6 °F 52.7 °F 30.03 in Calm     90% 0.00 in 0.00 W/m2
03:47 55.6 °F 52.7 °F 30.04 in Calm     90% 0.00 in 0.00 W/m2
03:48 55.5 °F 52.6 °F 30.04 in Calm     90% 0.00 in 0.00 W/m2
03:51 55.3 °F 52.1 °F 30.04 in Calm     89% 0.00 in 0.00 W/m2
03:52 55.3 °F 52.1 °F 30.04 in Calm   1.1 mph 89% 0.00 in 0.00 W/m2
03:53 55.2 °F 52.0 °F 30.04 in Calm   1.1 mph 89% 0.00 in 0.00 W/m2
03:54 55.1 °F 52.2 °F 30.04 in Calm   1.1 mph 90% 0.00 in 0.00 W/m2
03:55 55.1 °F 52.2 °F 30.04 in Calm   1.1 mph 90% 0.00 in 0.00 W/m2
03:56 55.0 °F 52.1 °F 30.04 in Calm     90% 0.00 in 0.00 W/m2
03:58 54.9 °F 52.0 °F 30.04 in Calm   1.1 mph 90% 0.00 in 0.00 W/m2
03:59 54.8 °F 51.9 °F 30.04 in Calm   1.1 mph 90% 0.00 in 0.00 W/m2
04:01 54.8 °F 51.9 °F 30.04 in Calm     90% 0.00 in 0.00 W/m2
04:03 54.8 °F 51.9 °F 30.04 in Calm     90% 0.00 in 0.00 W/m2
04:04 54.7 °F 51.8 °F 30.04 in Calm     90% 0.00 in 0.00 W/m2
04:06 54.7 °F 52.1 °F 30.04 in Calm     91% 0.00 in 0.00 W/m2
04:08 54.8 °F 52.2 °F 30.04 in Calm     91% 0.00 in 0.00 W/m2
04:09 54.8 °F 52.2 °F 30.04 in Calm     91% 0.00 in 0.00 W/m2
04:11 54.9 °F 52.3 °F 30.04 in Calm     91% 0.00 in 0.00 W/m2
04:13 54.9 °F 52.3 °F 30.04 in Calm     91% 0.00 in 0.00 W/m2
04:14 54.9 °F 52.3 °F 30.04 in Calm     91% 0.00 in 0.00 W/m2
04:15 55.0 °F 52.4 °F 30.04 in Calm     91% 0.00 in 0.00 W/m2
04:18 54.8 °F 52.2 °F 30.04 in Calm   1.1 mph 91% 0.00 in 0.00 W/m2
04:19 54.8 °F 52.2 °F 30.04 in Calm   1.1 mph 91% 0.00 in 0.00 W/m2
04:20 54.8 °F 52.2 °F 30.04 in Calm   1.1 mph 91% 0.00 in 0.00 W/m2
04:21 54.8 °F 52.2 °F 30.04 in Calm   1.1 mph 91% 0.00 in 0.00 W/m2
04:24 54.7 °F 52.1 °F 30.04 in Calm   1.1 mph 91% 0.00 in 0.00 W/m2
04:25 54.7 °F 52.1 °F 30.04 in Calm   1.1 mph 91% 0.00 in 0.00 W/m2
04:26 54.7 °F 52.1 °F 30.04 in Calm   1.1 mph 91% 0.00 in 0.00 W/m2
04:27 54.6 °F 52.0 °F 30.04 in Calm     91% 0.00 in 0.00 W/m2
04:30 54.6 °F 52.0 °F 30.04 in Calm     91% 0.00 in 0.00 W/m2
04:31 54.5 °F 51.9 °F 30.04 in Calm     91% 0.00 in 0.00 W/m2
04:32 54.5 °F 51.9 °F 30.04 in Calm     91% 0.00 in 0.00 W/m2
04:35 54.4 °F 51.8 °F 30.04 in Calm     91% 0.00 in 0.00 W/m2
04:36 54.3 °F 51.7 °F 30.04 in Calm     91% 0.00 in 0.00 W/m2
04:39 54.3 °F 52.0 °F 30.04 in Calm     92% 0.00 in 0.00 W/m2
04:40 54.3 °F 52.0 °F 30.04 in Calm     92% 0.00 in 0.00 W/m2
04:41 54.3 °F 52.0 °F 30.04 in Calm     92% 0.00 in 0.00 W/m2
04:43 54.2 °F 51.9 °F 30.04 in Calm     92% 0.00 in 0.00 W/m2
04:44 54.2 °F 51.9 °F 30.04 in Calm     92% 0.00 in 0.00 W/m2
04:45 54.2 °F 51.9 °F 30.04 in SW 1.1 mph 1.1 mph 92% 0.00 in 0.00 W/m2
04:46 54.2 °F 51.9 °F 30.04 in Calm     92% 0.00 in 0.00 W/m2
04:47 54.1 °F 51.8 °F 30.04 in Calm   1.1 mph 92% 0.00 in 0.00 W/m2
04:48 54.1 °F 51.8 °F 30.04 in Calm   1.1 mph 92% 0.00 in 0.00 W/m2
04:50 54.1 °F 51.8 °F 30.04 in Calm   1.1 mph 92% 0.00 in 0.00 W/m2
04:51 54.1 °F 51.8 °F 30.04 in Calm     92% 0.00 in 0.00 W/m2
04:52 54.0 °F 51.7 °F 30.04 in Calm     92% 0.00 in 0.00 W/m2
04:53 54.0 °F 51.7 °F 30.04 in Calm     92% 0.00 in 0.00 W/m2
04:54 54.0 °F 51.7 °F 30.04 in Calm     92% 0.00 in 0.00 W/m2
04:55 53.9 °F 51.6 °F 30.04 in Calm     92% 0.00 in 0.00 W/m2
04:57 54.0 °F 51.7 °F 30.04 in SW 1.1 mph 3.4 mph 92% 0.00 in 0.00 W/m2
04:58 53.9 °F 51.6 °F 30.04 in SW 3.4 mph 3.4 mph 92% 0.00 in 0.00 W/m2
05:00 53.9 °F 51.6 °F 30.04 in Calm   3.4 mph 92% 0.00 in 0.00 W/m2
05:01 53.9 °F 51.6 °F 30.04 in Calm   3.4 mph 92% 0.00 in 0.00 W/m2
05:02 54.0 °F 51.7 °F 30.04 in Calm     92% 0.00 in 0.00 W/m2
05:03 54.1 °F 51.8 °F 30.04 in Calm     92% 0.00 in 0.00 W/m2
05:05 54.2 °F 52.2 °F 30.04 in Calm     93% 0.00 in 0.00 W/m2
05:06 54.2 °F 52.2 °F 30.04 in Calm     93% 0.00 in 0.00 W/m2
05:07 54.3 °F 52.3 °F 30.04 in Calm     93% 0.00 in 0.00 W/m2
05:08 54.4 °F 52.4 °F 30.04 in Calm     93% 0.00 in 0.00 W/m2
05:09 54.4 °F 52.4 °F 30.04 in Calm     93% 0.00 in 0.00 W/m2
05:10 54.4 °F 52.4 °F 30.04 in Calm     93% 0.00 in 0.00 W/m2
05:13 54.4 °F 52.1 °F 30.04 in Calm     92% 0.00 in 0.00 W/m2
05:14 54.4 °F 52.4 °F 30.04 in Calm     93% 0.00 in 0.00 W/m2
05:15 54.5 °F 52.2 °F 30.04 in SW 2.3 mph 2.3 mph 92% 0.00 in 0.00 W/m2
05:16 54.5 °F 52.2 °F 30.04 in Calm   2.3 mph 92% 0.00 in 0.00 W/m2
05:18 54.5 °F 52.2 °F 30.04 in Calm   1.1 mph 92% 0.00 in 0.00 W/m2
05:19 54.5 °F 52.2 °F 30.04 in Calm   1.1 mph 92% 0.00 in 0.00 W/m2
05:20 54.5 °F 52.2 °F 30.04 in Calm   1.1 mph 92% 0.00 in 0.00 W/m2
05:21 54.5 °F 52.2 °F 30.04 in Calm   1.1 mph 92% 0.00 in 0.00 W/m2
05:23 54.5 °F 52.2 °F 30.04 in SW 1.1 mph 2.3 mph 92% 0.00 in 0.00 W/m2
05:24 54.5 °F 52.2 °F 30.04 in SW 3.4 mph 3.4 mph 92% 0.00 in 0.00 W/m2
05:26 54.4 °F 52.1 °F 30.04 in SW 2.3 mph 3.4 mph 92% 0.00 in 0.00 W/m2
05:27 54.4 °F 52.1 °F 30.04 in Calm   2.3 mph 92% 0.00 in 0.00 W/m2
05:28 54.5 °F 52.5 °F 30.04 in Calm   2.3 mph 93% 0.00 in 0.00 W/m2
05:30 54.6 °F 52.6 °F 30.04 in Calm   2.3 mph 93% 0.00 in 0.00 W/m2
05:31 54.6 °F 52.6 °F 30.04 in Calm   2.3 mph 93% 0.00 in 0.00 W/m2
05:32 54.6 °F 52.6 °F 30.04 in Calm     93% 0.00 in 0.00 W/m2
05:33 54.7 °F 52.7 °F 30.04 in Calm     93% 0.00 in 0.00 W/m2
05:34 54.8 °F 52.8 °F 30.04 in Calm     93% 0.00 in 0.00 W/m2
05:35 54.8 °F 52.5 °F 30.04 in Calm     92% 0.00 in 0.00 W/m2
05:38 54.8 °F 52.5 °F 30.04 in Calm     92% 0.00 in 0.00 W/m2
05:39 54.7 °F 52.4 °F 30.04 in Calm     92% 0.00 in 0.00 W/m2
05:40 54.7 °F 52.4 °F 30.04 in Calm     92% 0.00 in 0.00 W/m2
05:41 54.6 °F 52.3 °F 30.04 in Calm     92% 0.00 in 0.00 W/m2
05:42 54.6 °F 52.3 °F 30.04 in Calm     92% 0.00 in 0.00 W/m2
05:43 54.6 °F 52.3 °F 30.04 in Calm     92% 0.00 in 0.00 W/m2
05:46 54.5 °F 52.2 °F 30.04 in Calm     92% 0.00 in 0.00 W/m2
05:47 54.4 °F 52.1 °F 30.04 in Calm     92% 0.00 in 0.00 W/m2
05:48 54.4 °F 52.1 °F 30.04 in Calm     92% 0.00 in 0.00 W/m2
05:50 54.4 °F 52.1 °F 30.04 in Calm     92% 0.00 in 5.00 W/m2
05:51 54.4 °F 52.1 °F 30.04 in Calm     92% 0.00 in 5.00 W/m2
05:52 54.4 °F 52.4 °F 30.04 in Calm     93% 0.00 in 5.00 W/m2
05:53 54.4 °F 52.4 °F 30.04 in Calm     93% 0.00 in 7.00 W/m2
05:56 54.4 °F 52.1 °F 30.04 in Calm     92% 0.00 in 9.00 W/m2
05:57 54.4 °F 52.4 °F 30.04 in Calm     93% 0.00 in 9.00 W/m2
05:59 54.5 °F 52.5 °F 30.05 in Calm     93% 0.00 in 11.00 W/m2
06:01 54.6 °F 52.6 °F 30.05 in SW 2.3 mph 2.3 mph 93% 0.00 in 12.00 W/m2
06:02 54.6 °F 52.6 °F 30.05 in SW 3.4 mph 3.4 mph 93% 0.00 in 12.00 W/m2
06:03 54.7 °F 52.7 °F 30.05 in SW 1.1 mph 3.4 mph 93% 0.00 in 14.00 W/m2
06:04 54.8 °F 52.8 °F 30.05 in SW 2.3 mph 3.4 mph 93% 0.00 in 14.00 W/m2
06:05 54.8 °F 52.8 °F 30.05 in SW 4.6 mph 4.6 mph 93% 0.00 in 14.00 W/m2
06:07 54.9 °F 52.9 °F 30.05 in SW 3.4 mph 5.8 mph 93% 0.00 in 16.00 W/m2
06:08 54.9 °F 52.9 °F 30.05 in SW 4.6 mph 5.8 mph 93% 0.00 in 18.00 W/m2
06:10 55.0 °F 53.0 °F 30.05 in SW 3.4 mph 5.8 mph 93% 0.00 in 18.00 W/m2
06:11 55.0 °F 53.0 °F 30.05 in Calm   2.3 mph 93% 0.00 in 19.00 W/m2
06:12 55.1 °F 53.1 °F 30.05 in SW 3.4 mph 4.6 mph 93% 0.00 in 19.00 W/m2
06:13 55.1 °F 53.1 °F 30.05 in SW 2.3 mph 4.6 mph 93% 0.00 in 21.00 W/m2
06:14 55.1 °F 53.1 °F 30.05 in SW 3.4 mph 4.6 mph 93% 0.00 in 21.00 W/m2
06:16 55.1 °F 52.8 °F 30.05 in SW 3.4 mph 4.6 mph 92% 0.00 in 23.00 W/m2
06:18 55.1 °F 52.8 °F 30.05 in SW 3.4 mph 3.4 mph 92% 0.00 in 25.00 W/m2
06:19 55.1 °F 52.8 °F 30.05 in SW 2.3 mph 4.6 mph 92% 0.00 in 26.00 W/m2
06:21 55.1 °F 52.8 °F 30.05 in Calm   1.1 mph 92% 0.00 in 30.00 W/m2
06:22 55.1 °F 52.8 °F 30.05 in SW 2.3 mph 2.3 mph 92% 0.00 in 30.00 W/m2
06:23 55.1 °F 52.8 °F 30.05 in SW 1.1 mph 2.3 mph 92% 0.00 in 32.00 W/m2
06:24 55.1 °F 52.8 °F 30.05 in SW 1.1 mph 3.4 mph 92% 0.00 in 33.00 W/m2
06:27 55.2 °F 52.9 °F 30.05 in SW 2.3 mph 3.4 mph 92% 0.00 in 35.00 W/m2
06:28 55.2 °F 52.9 °F 30.05 in SW 2.3 mph 3.4 mph 92% 0.00 in 39.00 W/m2
06:29 55.2 °F 52.9 °F 30.05 in SW 2.3 mph 3.4 mph 92% 0.00 in 39.00 W/m2
06:30 55.2 °F 52.9 °F 30.05 in Calm   3.4 mph 92% 0.00 in 42.00 W/m2
06:33 55.3 °F 53.0 °F 30.05 in SW 1.1 mph 3.4 mph 92% 0.00 in 46.00 W/m2
06:34 55.4 °F 53.1 °F 30.05 in SW 2.3 mph 3.4 mph 92% 0.00 in 49.00 W/m2
06:35 55.4 °F 53.1 °F 30.05 in SW 3.4 mph 3.4 mph 92% 0.00 in 49.00 W/m2
06:36 55.4 °F 53.1 °F 30.05 in SW 4.6 mph 4.6 mph 92% 0.00 in 54.00 W/m2
06:38 55.5 °F 53.2 °F 30.05 in SW 2.3 mph 4.6 mph 92% 0.00 in 58.00 W/m2
06:39 55.5 °F 53.2 °F 30.06 in SW 1.1 mph 4.6 mph 92% 0.00 in 58.00 W/m2
06:41 55.6 °F 53.3 °F 30.06 in SW 1.1 mph 4.6 mph 92% 0.00 in 60.00 W/m2
06:42 55.6 °F 53.3 °F 30.06 in SW 3.4 mph 3.4 mph 92% 0.00 in 58.00 W/m2
06:44 55.7 °F 53.4 °F 30.06 in SW 2.3 mph 5.8 mph 92% 0.00 in 62.00 W/m2
06:46 55.7 °F 53.1 °F 30.06 in SW 1.1 mph 5.8 mph 91% 0.00 in 67.00 W/m2
06:47 55.8 °F 53.2 °F 30.06 in Calm     91% 0.00 in 58.00 W/m2
06:48 55.8 °F 53.2 °F 30.06 in SW 1.1 mph 2.3 mph 91% 0.00 in 58.00 W/m2
06:49 55.8 °F 53.2 °F 30.06 in SW 1.1 mph 2.3 mph 91% 0.00 in 60.00 W/m2
06:51 55.9 °F 53.3 °F 30.06 in SW 2.3 mph 2.3 mph 91% 0.00 in 91.00 W/m2
06:52 55.9 °F 53.3 °F 30.06 in SW 2.3 mph 2.3 mph 91% 0.00 in 97.00 W/m2
06:53 56.0 °F 53.4 °F 30.06 in SW 1.1 mph 2.3 mph 91% 0.00 in 98.00 W/m2
06:54 56.0 °F 53.4 °F 30.06 in Calm   2.3 mph 91% 0.00 in 100.00 W/m2
06:56 56.1 °F 53.5 °F 30.06 in SW 1.1 mph 1.1 mph 91% 0.00 in 104.00 W/m2
06:58 56.2 °F 53.6 °F 30.06 in SW 1.1 mph 1.1 mph 91% 0.00 in 109.00 W/m2
06:59 56.3 °F 53.7 °F 30.06 in SW 2.3 mph 2.3 mph 91% 0.00 in 114.00 W/m2
07:00 56.3 °F 53.7 °F 30.06 in SW 2.3 mph 3.4 mph 91% 0.00 in 116.00 W/m2
07:01 56.4 °F 53.8 °F 30.06 in SW 1.1 mph 2.3 mph 91% 0.00 in 120.00 W/m2
07:02 56.5 °F 53.9 °F 30.06 in Calm   2.3 mph 91% 0.00 in 121.00 W/m2
07:03 56.5 °F 53.9 °F 30.06 in SW 2.3 mph 4.6 mph 91% 0.00 in 121.00 W/m2
07:05 56.6 °F 54.0 °F 30.06 in SW 2.3 mph 4.6 mph 91% 0.00 in 130.00 W/m2
07:06 56.7 °F 54.1 °F 30.06 in SW 1.1 mph 4.6 mph 91% 0.00 in 134.00 W/m2
07:07 56.8 °F 53.9 °F 30.06 in SW 2.3 mph 3.4 mph 90% 0.00 in 137.00 W/m2
07:08 56.9 °F 54.0 °F 30.06 in SW 2.3 mph 4.6 mph 90% 0.00 in 146.00 W/m2
07:09 57.0 °F 54.1 °F 30.06 in SW 3.4 mph 4.6 mph 90% 0.00 in 149.00 W/m2
07:11 57.1 °F 54.2 °F 30.06 in SW 1.1 mph 4.6 mph 90% 0.00 in 156.00 W/m2
07:12 57.2 °F 54.3 °F 30.06 in SW 2.3 mph 4.6 mph 90% 0.00 in 176.00 W/m2
07:13 57.3 °F 54.4 °F 30.06 in SW 1.1 mph 4.6 mph 90% 0.00 in 185.00 W/m2
07:15 57.4 °F 54.5 °F 30.06 in Calm   4.6 mph 90% 0.00 in 199.00 W/m2
07:17 57.6 °F 54.7 °F 30.06 in Calm   2.3 mph 90% 0.00 in 202.00 W/m2
07:18 57.7 °F 54.5 °F 30.06 in SW 3.4 mph 3.4 mph 89% 0.00 in 206.00 W/m2
07:19 57.9 °F 54.7 °F 30.06 in SW 3.4 mph 4.6 mph 89% 0.00 in 206.00 W/m2
07:21 58.0 °F 54.8 °F 30.06 in SW 3.4 mph 4.6 mph 89% 0.00 in 202.00 W/m2
07:22 58.1 °F 54.9 °F 30.06 in SW 3.4 mph 4.6 mph 89% 0.00 in 202.00 W/m2
07:23 58.2 °F 55.0 °F 30.06 in SW 5.8 mph 6.9 mph 89% 0.00 in 190.00 W/m2
07:24 58.3 °F 55.1 °F 30.06 in SW 3.4 mph 6.9 mph 89% 0.00 in 169.00 W/m2
07:25 58.4 °F 55.2 °F 30.06 in SW 4.6 mph 6.9 mph 89% 0.00 in 188.00 W/m2
07:26 58.4 °F 55.2 °F 30.06 in SW 5.8 mph 6.9 mph 89% 0.00 in 188.00 W/m2
07:27 58.5 °F 55.0 °F 30.06 in SW 3.4 mph 5.8 mph 88% 0.00 in 190.00 W/m2
07:28 58.6 °F 55.1 °F 30.06 in SW 4.6 mph 5.8 mph 88% 0.00 in 204.00 W/m2
07:30 58.7 °F 55.2 °F 30.06 in SW 5.8 mph 5.8 mph 88% 0.00 in 220.00 W/m2
07:31 58.7 °F 55.2 °F 30.06 in SW 6.9 mph 6.9 mph 88% 0.00 in 220.00 W/m2
07:32 58.8 °F 55.3 °F 30.06 in SW 3.4 mph 6.9 mph 88% 0.00 in 229.00 W/m2
07:33 58.9 °F 55.4 °F 30.07 in SW 5.8 mph 6.9 mph 88% 0.00 in 241.00 W/m2
07:35 59.1 °F 55.5 °F 30.07 in SW 5.8 mph 6.9 mph 88% 0.00 in 241.00 W/m2
07:36 59.1 °F 55.5 °F 30.07 in SW 5.8 mph 6.9 mph 88% 0.00 in 241.00 W/m2
07:37 59.3 °F 55.8 °F 30.07 in SW 4.6 mph 4.6 mph 88% 0.00 in 237.00 W/m2
07:39 59.5 °F 56.0 °F 30.07 in SW 2.3 mph 6.9 mph 88% 0.00 in 229.00 W/m2
07:41 59.6 °F 56.0 °F 30.07 in SW 4.6 mph 6.9 mph 88% 0.00 in 229.00 W/m2
07:42 59.7 °F 56.2 °F 30.07 in SW 4.6 mph 5.8 mph 88% 0.00 in 227.00 W/m2
07:45 59.9 °F 56.3 °F 30.07 in SW 6.9 mph 6.9 mph 88% 0.00 in 244.00 W/m2
07:46 60.1 °F 56.5 °F 30.07 in SW 3.4 mph 4.6 mph 88% 0.00 in 250.00 W/m2
07:47 60.1 °F 56.2 °F 30.07 in SW 1.1 mph 4.6 mph 87% 0.00 in 255.00 W/m2
07:48 60.2 °F 56.3 °F 30.07 in SW 4.6 mph 4.6 mph 87% 0.00 in 257.00 W/m2
07:50 60.3 °F 56.4 °F 30.07 in WSW 4.6 mph 8.1 mph 87% 0.00 in 267.00 W/m2
07:51 60.3 °F 56.4 °F 30.07 in WSW 4.6 mph 5.8 mph 87% 0.00 in 272.00 W/m2
07:53 60.4 °F 56.2 °F 30.07 in WSW 3.4 mph 6.9 mph 86% 0.00 in 274.00 W/m2
07:54 60.4 °F 56.2 °F 30.07 in WSW 5.8 mph 6.9 mph 86% 0.00 in 278.00 W/m2
07:57 60.7 °F 56.5 °F 30.07 in WSW 4.6 mph 5.8 mph 86% 0.00 in 211.00 W/m2
07:58 60.8 °F 56.6 °F 30.07 in WSW 6.9 mph 6.9 mph 86% 0.00 in 192.00 W/m2
07:59 60.8 °F 56.6 °F 30.07 in WSW 5.8 mph 6.9 mph 86% 0.00 in 151.00 W/m2
08:00 60.8 °F 56.6 °F 30.07 in WSW 3.4 mph 6.9 mph 86% 0.00 in 137.00 W/m2
08:03 60.8 °F 56.6 °F 30.07 in WSW 5.8 mph 6.9 mph 86% 0.00 in 130.00 W/m2
08:04 60.8 °F 56.3 °F 30.06 in WSW 4.6 mph 8.1 mph 85% 0.00 in 206.00 W/m2
08:05 60.8 °F 56.3 °F 30.06 in WSW 3.4 mph 8.1 mph 85% 0.00 in 202.00 W/m2
08:06 60.8 °F 56.3 °F 30.06 in WSW 2.3 mph 8.1 mph 85% 0.00 in 163.00 W/m2
08:07 60.8 °F 56.3 °F 30.06 in WSW 3.4 mph 5.8 mph 85% 0.00 in 155.00 W/m2
08:09 60.8 °F 56.3 °F 30.06 in WSW 4.6 mph 5.8 mph 85% 0.00 in 207.00 W/m2
08:10 60.9 °F 56.7 °F 30.06 in WSW 5.8 mph 5.8 mph 86% 0.00 in 207.00 W/m2
08:11 61.1 °F 56.9 °F 30.06 in WSW 3.4 mph 6.9 mph 86% 0.00 in 311.00 W/m2
08:13 61.4 °F 56.9 °F 30.07 in WSW 5.8 mph 8.1 mph 85% 0.00 in 360.00 W/m2
08:15 61.8 °F 57.2 °F 30.07 in WSW 4.6 mph 8.1 mph 85% 0.00 in 362.00 W/m2
08:16 61.9 °F 57.3 °F 30.07 in WSW 6.9 mph 8.1 mph 85% 0.00 in 348.00 W/m2
08:18 62.2 °F 57.3 °F 30.07 in West 6.9 mph 9.2 mph 84% 0.00 in 357.00 W/m2
08:21 62.5 °F 57.3 °F 30.07 in West 5.8 mph 5.8 mph 83% 0.00 in 387.00 W/m2
08:22 62.5 °F 57.3 °F 30.07 in West 4.6 mph 6.9 mph 83% 0.00 in 392.00 W/m2
08:23 62.6 °F 57.4 °F 30.07 in WNW 8.1 mph 8.1 mph 83% 0.00 in 390.00 W/m2
08:25 62.8 °F 57.6 °F 30.07 in WNW 4.6 mph 10.3 mph 83% 0.00 in 406.00 W/m2
08:27 63.0 °F 57.8 °F 30.07 in WNW 5.8 mph 6.9 mph 83% 0.00 in 408.00 W/m2
08:28 63.2 °F 58.3 °F 30.07 in WNW 5.8 mph 10.3 mph 84% 0.00 in 410.00 W/m2
08:29 63.2 °F 58.0 °F 30.07 in WNW 6.9 mph 10.3 mph 83% 0.00 in 408.00 W/m2
08:31 63.3 °F 57.7 °F 30.07 in WNW 4.6 mph 10.3 mph 82% 0.00 in 411.00 W/m2
08:32 63.5 °F 58.2 °F 30.07 in WNW 3.4 mph 8.1 mph 83% 0.00 in 417.00 W/m2
08:33 63.6 °F 58.0 °F 30.07 in WNW 10.3 mph 10.3 mph 82% 0.00 in 424.00 W/m2
08:34 63.6 °F 58.0 °F 30.07 in West 5.8 mph 10.3 mph 82% 0.00 in 427.00 W/m2
08:36 63.9 °F 58.3 °F 30.07 in WNW 4.6 mph 8.1 mph 82% 0.00 in 443.00 W/m2
08:37 64.0 °F 58.4 °F 30.07 in WNW 8.1 mph 8.1 mph 82% 0.00 in 443.00 W/m2
08:39 64.0 °F 58.1 °F 30.07 in WNW 6.9 mph 10.3 mph 81% 0.00 in 445.00 W/m2
08:40 64.0 °F 58.1 °F 30.07 in WNW 5.8 mph 10.3 mph 81% 0.00 in 446.00 W/m2
08:41 64.1 °F 58.2 °F 30.07 in NW 6.9 mph 10.3 mph 81% 0.00 in 452.00 W/m2
08:42 64.1 °F 58.2 °F 30.07 in NW 8.1 mph 10.3 mph 81% 0.00 in 461.00 W/m2
08:43 64.1 °F 58.2 °F 30.07 in WNW 4.6 mph 10.3 mph 81% 0.00 in 464.00 W/m2
08:44 64.1 °F 58.2 °F 30.07 in WNW 4.6 mph 10.3 mph 81% 0.00 in 471.00 W/m2
08:45 64.1 °F 58.2 °F 30.07 in WNW 3.4 mph 10.3 mph 81% 0.00 in 473.00 W/m2
08:46 64.3 °F 58.3 °F 30.07 in NW 9.2 mph 9.2 mph 81% 0.00 in 471.00 W/m2
08:47 64.4 °F 58.5 °F 30.07 in NW 6.9 mph 10.3 mph 81% 0.00 in 492.00 W/m2
08:48 64.5 °F 58.2 °F 30.07 in NW 3.4 mph 10.3 mph 80% 0.00 in 492.00 W/m2
08:49 64.5 °F 58.5 °F 30.07 in NW 3.4 mph 10.3 mph 81% 0.00 in 492.00 W/m2
08:50 64.6 °F 58.7 °F 30.07 in WNW 6.9 mph 10.3 mph 81% 0.00 in 443.00 W/m2
08:53 65.1 °F 59.1 °F 30.07 in WNW 1.1 mph 6.9 mph 81% 0.00 in 483.00 W/m2
08:54 65.1 °F 59.1 °F 30.07 in WNW 2.3 mph 6.9 mph 81% 0.00 in 483.00 W/m2
08:55 65.3 °F 59.0 °F 30.07 in WNW 5.8 mph 9.2 mph 80% 0.00 in 471.00 W/m2
08:56 65.3 °F 58.6 °F 30.06 in WNW 4.6 mph 9.2 mph 79% 0.00 in 490.00 W/m2
08:58 65.4 °F 59.1 °F 30.06 in WNW 9.2 mph 9.2 mph 80% 0.00 in 496.00 W/m2
08:59 65.4 °F 58.4 °F 30.06 in WNW 6.9 mph 11.5 mph 78% 0.00 in 485.00 W/m2
09:00 65.4 °F 58.7 °F 30.06 in WNW 5.8 mph 11.5 mph 79% 0.00 in 497.00 W/m2
09:01 65.4 °F 58.7 °F 30.06 in WNW 4.6 mph 11.5 mph 79% 0.00 in 287.00 W/m2
09:04 65.4 °F 58.7 °F 30.06 in WNW 4.6 mph 9.2 mph 79% 0.00 in 510.00 W/m2
09:06 65.6 °F 58.6 °F 30.06 in WNW 5.8 mph 9.2 mph 78% 0.00 in 515.00 W/m2
09:08 65.8 °F 58.8 °F 30.06 in WNW 3.4 mph 6.9 mph 78% 0.00 in 520.00 W/m2
09:09 66.0 °F 59.3 °F 30.06 in WNW 4.6 mph 6.9 mph 79% 0.00 in 524.00 W/m2
09:11 66.2 °F 58.8 °F 30.06 in WNW 4.6 mph 6.9 mph 77% 0.00 in 531.00 W/m2
09:12 66.3 °F 58.9 °F 30.06 in WNW 4.6 mph 6.9 mph 77% 0.00 in 533.00 W/m2
09:14 66.4 °F 59.3 °F 30.06 in WNW 1.1 mph 6.9 mph 78% 0.00 in 540.00 W/m2
09:16 66.6 °F 59.5 °F 30.06 in WNW 6.9 mph 6.9 mph 78% 0.00 in 541.00 W/m2
09:17 66.8 °F 59.4 °F 30.06 in WNW 6.9 mph 6.9 mph 77% 0.00 in 545.00 W/m2
09:19 67.0 °F 59.9 °F 30.06 in WNW 4.6 mph 6.9 mph 78% 0.00 in 550.00 W/m2
09:20 67.3 °F 59.5 °F 30.06 in WNW 6.9 mph 8.1 mph 76% 0.00 in 555.00 W/m2
09:21 67.3 °F 59.5 °F 30.06 in WNW 6.9 mph 9.2 mph 76% 0.00 in 563.00 W/m2
09:22 67.3 °F 59.5 °F 30.06 in WNW 8.1 mph 9.2 mph 76% 0.00 in 570.00 W/m2
09:23 67.3 °F 59.5 °F 30.06 in WNW 5.8 mph 9.2 mph 76% 0.00 in 570.00 W/m2
09:24 67.3 °F 59.5 °F 30.06 in WNW 3.4 mph 9.2 mph 76% 0.00 in 573.00 W/m2
09:26 67.6 °F 60.1 °F 30.06 in WNW 5.8 mph 9.2 mph 77% 0.00 in 578.00 W/m2
09:27 67.6 °F 60.1 °F 30.06 in WNW 6.9 mph 6.9 mph 77% 0.00 in 582.00 W/m2
09:28 67.8 °F 59.6 °F 30.06 in WNW 5.8 mph 6.9 mph 75% 0.00 in 584.00 W/m2
09:31 68.3 °F 60.1 °F 30.06 in West 5.8 mph 10.3 mph 75% 0.00 in 587.00 W/m2
09:32 68.3 °F 59.7 °F 30.06 in West 4.6 mph 5.8 mph 74% 0.00 in 589.00 W/m2
09:33 68.4 °F 60.2 °F 30.06 in West 3.4 mph 5.8 mph 75% 0.00 in 589.00 W/m2
09:34 68.6 °F 60.0 °F 30.06 in WNW 4.6 mph 5.8 mph 74% 0.00 in 594.00 W/m2
09:36 68.9 °F 60.3 °F 30.06 in WNW 4.6 mph 4.6 mph 74% 0.00 in 601.00 W/m2
09:37 69.0 °F 60.8 °F 30.06 in WNW 8.1 mph 10.3 mph 75% 0.00 in 599.00 W/m2
09:38 69.2 °F 61.0 °F 30.06 in WNW 5.8 mph 10.3 mph 75% 0.00 in 605.00 W/m2
09:40 69.3 °F 60.3 °F 30.06 in WNW 6.9 mph 10.3 mph 73% 0.00 in 608.00 W/m2
09:42 69.5 °F 60.5 °F 30.06 in WNW 4.6 mph 9.2 mph 73% 0.00 in 617.00 W/m2
09:43 69.5 °F 60.1 °F 30.06 in WNW 8.1 mph 10.3 mph 72% 0.00 in 619.00 W/m2
09:45 69.4 °F 60.0 °F 30.06 in WNW 9.2 mph 10.3 mph 72% 0.00 in 626.00 W/m2
09:46 69.5 °F 60.5 °F 30.06 in WNW 3.4 mph 10.3 mph 73% 0.00 in 629.00 W/m2
09:47 69.9 °F 60.9 °F 30.06 in WNW 9.2 mph 11.5 mph 73% 0.00 in 635.00 W/m2
09:48 69.9 °F 60.9 °F 30.06 in WNW 9.2 mph 11.5 mph 73% 0.00 in 636.00 W/m2
09:50 69.9 °F 60.1 °F 30.06 in WNW 6.9 mph 11.5 mph 71% 0.00 in 663.00 W/m2
09:51 69.9 °F 60.1 °F 30.06 in WNW 5.8 mph 11.5 mph 71% 0.00 in 668.00 W/m2
09:53 69.9 °F 60.1 °F 30.05 in WNW 10.3 mph 10.3 mph 71% 0.00 in 684.00 W/m2
09:54 70.1 °F 59.9 °F 30.05 in NW 8.1 mph 11.5 mph 70% 0.00 in 693.00 W/m2
09:56 70.1 °F 59.9 °F 30.05 in WNW 10.3 mph 11.5 mph 70% 0.00 in 703.00 W/m2
09:57 70.1 °F 60.3 °F 30.05 in NW 5.8 mph 14.9 mph 71% 0.00 in 710.00 W/m2
10:00 70.3 °F 60.1 °F 30.05 in WNW 4.6 mph 14.9 mph 70% 0.00 in 735.00 W/m2
10:01 70.5 °F 60.7 °F 30.05 in WNW 6.9 mph 6.9 mph 71% 0.00 in 729.00 W/m2
10:02 70.6 °F 60.3 °F 30.05 in WNW 6.9 mph 6.9 mph 70% 0.00 in 729.00 W/m2
10:05 70.9 °F 60.6 °F 30.05 in WNW 4.6 mph 12.6 mph 70% 0.00 in 722.00 W/m2
10:06 71.0 °F 59.9 °F 30.05 in WNW 9.2 mph 9.2 mph 68% 0.00 in 722.00 W/m2
10:07 71.2 °F 61.3 °F 30.05 in WNW 5.8 mph 9.2 mph 71% 0.00 in 707.00 W/m2
10:08 71.4 °F 60.7 °F 30.05 in WNW 10.3 mph 13.8 mph 69% 0.00 in 707.00 W/m2
10:09 71.5 °F 60.8 °F 30.05 in WNW 6.9 mph 13.8 mph 69% 0.00 in 707.00 W/m2
10:11 71.4 °F 60.3 °F 30.05 in WNW 9.2 mph 13.8 mph 68% 0.00 in 390.00 W/m2
10:12 71.3 °F 60.2 °F 30.05 in NW 9.2 mph 10.3 mph 68% 0.00 in 708.00 W/m2
10:13 71.3 °F 60.2 °F 30.05 in WNW 6.9 mph 10.3 mph 68% 0.00 in 700.00 W/m2
10:14 71.2 °F 60.5 °F 30.05 in WNW 3.4 mph 10.3 mph 69% 0.00 in 696.00 W/m2
10:16 71.4 °F 60.7 °F 30.05 in West 4.6 mph 12.6 mph 69% 0.00 in 703.00 W/m2
10:17 71.6 °F 60.9 °F 30.05 in NW 8.1 mph 13.8 mph 69% 0.00 in 705.00 W/m2
10:19 71.8 °F 60.7 °F 30.05 in WNW 9.2 mph 14.9 mph 68% 0.00 in 710.00 W/m2
10:20 71.8 °F 60.7 °F 30.05 in WNW 11.5 mph 14.9 mph 68% 0.00 in 710.00 W/m2
10:21 71.9 °F 60.4 °F 30.05 in West 8.1 mph 11.5 mph 67% 0.00 in 714.00 W/m2
10:22 72.0 °F 60.5 °F 30.05 in West 5.8 mph 11.5 mph 67% 0.00 in 714.00 W/m2
10:25 72.3 °F 61.2 °F 30.05 in West 4.6 mph 11.5 mph 68% 0.00 in 715.00 W/m2
10:27 72.6 °F 60.2 °F 30.05 in West 8.1 mph 12.6 mph 65% 0.00 in 728.00 W/m2
10:28 72.6 °F 60.2 °F 30.05 in NW 8.1 mph 12.6 mph 65% 0.00 in 729.00 W/m2
10:29 72.5 °F 60.1 °F 30.05 in NW 5.8 mph 12.6 mph 65% 0.00 in 729.00 W/m2
10:31 72.5 °F 60.1 °F 30.05 in NW 8.1 mph 12.6 mph 65% 0.00 in 733.00 W/m2
10:33 72.4 °F 60.0 °F 30.05 in NW 8.1 mph 12.6 mph 65% 0.00 in 731.00 W/m2
10:34 72.3 °F 60.3 °F 30.05 in West 5.8 mph 12.6 mph 66% 0.00 in 731.00 W/m2
10:37 72.8 °F 60.4 °F 30.05 in WNW 6.9 mph 13.8 mph 65% 0.00 in 738.00 W/m2
10:38 72.9 °F 60.5 °F 30.05 in WNW 8.1 mph 13.8 mph 65% 0.00 in 740.00 W/m2
10:39 73.1 °F 61.1 °F 30.05 in West 9.2 mph 13.8 mph 66% 0.00 in 740.00 W/m2
10:40 73.4 °F 61.4 °F 30.05 in WNW 10.3 mph 13.8 mph 66% 0.00 in 747.00 W/m2
10:43 73.3 °F 60.4 °F 30.05 in NW 10.3 mph 12.6 mph 64% 0.00 in 751.00 W/m2
10:44 73.3 °F 60.0 °F 30.05 in NW 10.3 mph 13.8 mph 63% 0.00 in 754.00 W/m2
10:48 73.3 °F 60.4 °F 30.05 in West 9.2 mph 16.1 mph 64% 0.00 in 759.00 W/m2
10:49 73.3 °F 60.4 °F 30.05 in WNW 8.1 mph 16.1 mph 64% 0.00 in 759.00 W/m2
10:51 73.2 °F 59.9 °F 30.05 in WSW 4.6 mph 16.1 mph 63% 0.00 in 765.00 W/m2
10:54 73.2 °F 60.3 °F 30.05 in West 8.1 mph 12.6 mph 64% 0.00 in 765.00 W/m2
10:55 73.3 °F 60.8 °F 30.05 in WNW 12.6 mph 12.6 mph 65% 0.00 in 766.00 W/m2
10:56 73.5 °F 60.6 °F 30.05 in NW 4.6 mph 4.6 mph 64% 0.00 in 770.00 W/m2
10:58 73.8 °F 61.7 °F 30.05 in West 16.1 mph 16.1 mph 66% 0.00 in 773.00 W/m2
11:00 74.1 °F 60.7 °F 30.05 in WNW 9.2 mph 16.1 mph 63% 0.00 in 777.00 W/m2
11:01 74.0 °F 60.6 °F 30.05 in NW 10.3 mph 16.1 mph 63% 0.00 in 775.00 W/m2
11:02 73.9 °F 60.1 °F 30.05 in WNW 9.2 mph 14.9 mph 62% 0.00 in 779.00 W/m2
11:03 73.9 °F 60.1 °F 30.05 in WNW 12.6 mph 14.9 mph 62% 0.00 in 780.00 W/m2
11:05 73.7 °F 59.9 °F 30.04 in West 13.8 mph 14.9 mph 62% 0.00 in 782.00 W/m2
11:06 73.8 °F 60.4 °F 30.04 in West 13.8 mph 14.9 mph 63% 0.00 in 782.00 W/m2
11:08 73.9 °F 60.5 °F 30.05 in WNW 9.2 mph 13.8 mph 63% 0.00 in 780.00 W/m2
11:11 74.0 °F 60.6 °F 30.04 in NNW 13.8 mph 13.8 mph 63% 0.00 in 784.00 W/m2
11:12 74.1 °F 59.8 °F 30.05 in West 8.1 mph 14.9 mph 61% 0.00 in 791.00 W/m2
11:13 74.1 °F 59.8 °F 30.04 in NW 11.5 mph 14.9 mph 61% 0.00 in 791.00 W/m2
11:14 74.1 °F 59.8 °F 30.04 in West 9.2 mph 14.9 mph 61% 0.00 in 793.00 W/m2
11:15 74.1 °F 59.8 °F 30.04 in WNW 6.9 mph 14.9 mph 61% 0.00 in 791.00 W/m2
11:16 74.0 °F 59.7 °F 30.05 in NW 8.1 mph 14.9 mph 61% 0.00 in 796.00 W/m2
11:19 74.5 °F 61.5 °F 30.05 in NW 9.2 mph 13.8 mph 64% 0.00 in 798.00 W/m2
11:20 74.8 °F 60.9 °F 30.04 in West 12.6 mph 13.8 mph 62% 0.00 in 802.00 W/m2
11:21 75.0 °F 61.1 °F 30.04 in WNW 13.8 mph 13.8 mph 62% 0.00 in 803.00 W/m2
11:22 75.1 °F 60.8 °F 30.04 in WNW 12.6 mph 13.8 mph 61% 0.00 in 810.00 W/m2
11:24 74.9 °F 60.1 °F 30.05 in West 8.1 mph 13.8 mph 60% 0.00 in 817.00 W/m2
11:25 74.9 °F 60.1 °F 30.05 in West 9.2 mph 13.8 mph 60% 0.00 in 817.00 W/m2
11:27 74.9 °F 59.6 °F 30.04 in NW 9.2 mph 13.8 mph 59% 0.00 in 814.00 W/m2
11:28 74.9 °F 59.6 °F 30.04 in WNW 12.6 mph 18.4 mph 59% 0.00 in 821.00 W/m2
11:30 74.9 °F 60.1 °F 30.04 in NW 14.9 mph 18.4 mph 60% 0.00 in 819.00 W/m2
11:31 75.0 °F 60.2 °F 30.04 in NNW 12.6 mph 18.4 mph 60% 0.00 in 823.00 W/m2
11:32 75.1 °F 60.3 °F 30.04 in NNW 6.9 mph 10.3 mph 60% 0.00 in 826.00 W/m2
11:33 75.3 °F 60.9 °F 30.04 in WNW 11.5 mph 14.9 mph 61% 0.00 in 821.00 W/m2
11:35 75.4 °F 60.6 °F 30.04 in WNW 8.1 mph 18.4 mph 60% 0.00 in 838.00 W/m2
11:37 75.4 °F 60.6 °F 30.04 in NW 8.1 mph 12.6 mph 60% 0.00 in 877.00 W/m2
11:39 75.4 °F 59.6 °F 30.04 in West 11.5 mph 12.6 mph 58% 0.00 in 879.00 W/m2
11:40 75.2 °F 59.9 °F 30.04 in West 10.3 mph 12.6 mph 59% 0.00 in 846.00 W/m2
11:43 75.4 °F 60.6 °F 30.04 in West 8.1 mph 17.2 mph 60% 0.00 in 888.00 W/m2
11:44 75.6 °F 60.8 °F 30.04 in WNW 9.2 mph 17.2 mph 60% 0.00 in 888.00 W/m2
11:45 75.6 °F 60.3 °F 30.04 in WNW 8.1 mph 17.2 mph 59% 0.00 in 888.00 W/m2
11:49 75.8 °F 60.0 °F 30.04 in NW 14.9 mph 19.5 mph 58% 0.00 in 849.00 W/m2
11:50 75.7 °F 60.4 °F 30.04 in WNW 9.2 mph 19.5 mph 59% 0.00 in 789.00 W/m2
11:51 75.7 °F 60.4 °F 30.04 in WNW 8.1 mph 19.5 mph 59% 0.00 in 789.00 W/m2
11:54 76.3 °F 62.3 °F 30.03 in NW 9.2 mph 14.9 mph 62% 0.00 in 838.00 W/m2
11:55 76.5 °F 62.5 °F 30.04 in WNW 9.2 mph 14.9 mph 62% 0.00 in 840.00 W/m2
11:56 76.6 °F 61.2 °F 30.04 in WNW 14.9 mph 16.1 mph 59% 0.00 in 840.00 W/m2
11:57 76.7 °F 60.8 °F 30.04 in WNW 16.1 mph 17.2 mph 58% 0.00 in 842.00 W/m2
12:00 76.4 °F 59.6 °F 30.04 in NW 16.1 mph 17.2 mph 56% 0.00 in 849.00 W/m2
12:01 76.2 °F 59.9 °F 30.04 in WNW 13.8 mph 18.4 mph 57% 0.00 in 853.00 W/m2
12:02 76.2 °F 59.4 °F 30.04 in NW 10.3 mph 18.4 mph 56% 0.00 in 853.00 W/m2
12:03 76.2 °F 59.4 °F 30.04 in NW 4.6 mph 18.4 mph 56% 0.00 in 854.00 W/m2
12:05 76.0 °F 59.2 °F 30.03 in WNW 13.8 mph 18.4 mph 56% 0.00 in 867.00 W/m2
12:07 76.0 °F 59.2 °F 30.03 in WNW 12.6 mph 18.4 mph 56% 0.00 in 868.00 W/m2
12:08 76.2 °F 60.4 °F 30.03 in NNW 14.9 mph 18.4 mph 58% 0.00 in 868.00 W/m2
12:11 76.6 °F 61.2 °F 30.03 in WNW 12.6 mph 12.6 mph 59% 0.00 in 875.00 W/m2
12:12 76.6 °F 61.2 °F 30.03 in WNW 6.9 mph 12.6 mph 59% 0.00 in 875.00 W/m2
12:13 76.8 °F 60.9 °F 30.03 in WNW 10.3 mph 13.8 mph 58% 0.00 in 874.00 W/m2
12:16 76.9 °F 60.0 °F 30.03 in NW 12.6 mph 13.8 mph 56% 0.00 in 914.00 W/m2
12:17 76.7 °F 59.8 °F 30.03 in NW 10.3 mph 13.8 mph 56% 0.00 in 942.00 W/m2
12:19 76.6 °F 60.2 °F 30.03 in NW 4.6 mph 13.8 mph 57% 0.00 in 942.00 W/m2
12:21 76.5 °F 60.2 °F 30.03 in WNW 5.8 mph 13.8 mph 57% 0.00 in 991.00 W/m2
12:22 76.8 °F 60.9 °F 30.03 in NNW 12.6 mph 17.2 mph 58% 0.00 in 991.00 W/m2
12:23 76.8 °F 60.9 °F 30.03 in NW 12.6 mph 17.2 mph 58% 0.00 in 991.00 W/m2
12:24 76.7 °F 60.3 °F 30.03 in West 10.3 mph 17.2 mph 57% 0.00 in 933.00 W/m2
12:28 76.8 °F 59.9 °F 30.03 in NW 8.1 mph 12.6 mph 56% 0.00 in 939.00 W/m2
12:29 76.9 °F 61.5 °F 30.03 in WNW 10.3 mph 13.8 mph 59% 0.00 in 956.00 W/m2
12:30 76.9 °F 61.5 °F 30.03 in WNW 11.5 mph 13.8 mph 59% 0.00 in 956.00 W/m2
12:33 76.7 °F 60.3 °F 30.03 in WNW 14.9 mph 14.9 mph 57% 0.00 in 944.00 W/m2
12:34 76.7 °F 59.8 °F 30.03 in WNW 9.2 mph 14.9 mph 56% 0.00 in 990.00 W/m2
12:35 76.7 °F 60.3 °F 30.03 in NW 12.6 mph 16.1 mph 57% 0.00 in 990.00 W/m2
12:36 76.6 °F 59.2 °F 30.03 in WNW 11.5 mph 16.1 mph 55% 0.00 in 990.00 W/m2
12:38 76.7 °F 60.8 °F 30.03 in WNW 9.2 mph 16.1 mph 58% 0.00 in 905.00 W/m2
12:39 76.9 °F 60.5 °F 30.03 in WNW 8.1 mph 16.1 mph 57% 0.00 in 905.00 W/m2
12:40 77.1 °F 60.7 °F 30.03 in WNW 10.3 mph 16.1 mph 57% 0.00 in 904.00 W/m2
12:43 77.2 °F 60.8 °F 30.03 in West 13.8 mph 14.9 mph 57% 0.00 in 949.00 W/m2
12:44 77.4 °F 60.5 °F 30.03 in NNW 9.2 mph 14.9 mph 56% 0.00 in 919.00 W/m2
12:45 77.5 °F 59.6 °F 30.03 in NW 11.5 mph 14.9 mph 54% 0.00 in 949.00 W/m2
12:47 77.4 °F 60.0 °F 30.03 in WNW 12.6 mph 23.0 mph 55% 0.00 in 919.00 W/m2
12:48 77.2 °F 58.8 °F 30.03 in WNW 12.6 mph 23.0 mph 53% 0.00 in 914.00 W/m2
12:49 77.2 °F 59.3 °F 30.03 in NW 5.8 mph 23.0 mph 54% 0.00 in 919.00 W/m2
12:50 77.3 °F 59.4 °F 30.03 in WNW 10.3 mph 23.0 mph 54% 0.00 in 912.00 W/m2
12:51 77.4 °F 61.0 °F 30.03 in NW 12.6 mph 23.0 mph 57% 0.00 in 916.00 W/m2
12:52 77.5 °F 60.1 °F 30.03 in WNW 9.2 mph 14.9 mph 55% 0.00 in 919.00 W/m2
12:53 77.5 °F 59.6 °F 30.03 in West 12.6 mph 14.9 mph 54% 0.00 in 914.00 W/m2
12:55 77.6 °F 59.7 °F 30.03 in NW 9.2 mph 17.2 mph 54% 0.00 in 912.00 W/m2
12:56 77.7 °F 59.8 °F 30.03 in NW 9.2 mph 17.2 mph 54% 0.00 in 914.00 W/m2
12:57 77.8 °F 60.4 °F 30.03 in NW 12.6 mph 16.1 mph 55% 0.00 in 912.00 W/m2
12:59 77.8 °F 59.3 °F 30.02 in WNW 10.3 mph 21.9 mph 53% 0.00 in 916.00 W/m2
13:00 77.8 °F 59.8 °F 30.02 in West 11.5 mph 21.9 mph 54% 0.00 in 912.00 W/m2
13:01 77.8 °F 59.8 °F 30.02 in WNW 10.3 mph 21.9 mph 54% 0.00 in 912.00 W/m2
13:02 77.8 °F 59.8 °F 30.02 in West 11.5 mph 12.6 mph 54% 0.00 in 919.00 W/m2
13:03 77.8 °F 59.8 °F 30.03 in NW 13.8 mph 19.5 mph 54% 0.00 in 918.00 W/m2
13:05 78.0 °F 60.5 °F 30.02 in NW 9.2 mph 19.5 mph 55% 0.00 in 919.00 W/m2
13:06 78.1 °F 60.6 °F 30.02 in WNW 10.3 mph 11.5 mph 55% 0.00 in 928.00 W/m2
13:07 78.2 °F 60.7 °F 30.02 in NW 8.1 mph 12.6 mph 55% 0.00 in 928.00 W/m2
13:08 78.3 °F 60.3 °F 30.02 in WNW 12.6 mph 12.6 mph 54% 0.00 in 921.00 W/m2
13:10 78.3 °F 59.2 °F 30.02 in NW 13.8 mph 19.5 mph 52% 0.00 in 918.00 W/m2
13:12 78.3 °F 59.8 °F 30.02 in WNW 10.3 mph 17.2 mph 53% 0.00 in 916.00 W/m2
13:13 78.3 °F 59.2 °F 30.02 in WNW 13.8 mph 17.2 mph 52% 0.00 in 911.00 W/m2
13:14 78.3 °F 59.2 °F 30.02 in WNW 11.5 mph 17.2 mph 52% 0.00 in 914.00 W/m2
13:15 78.2 °F 59.7 °F 30.02 in NW 13.8 mph 17.2 mph 53% 0.00 in 907.00 W/m2
13:17 78.3 °F 60.3 °F 30.02 in NW 12.6 mph 14.9 mph 54% 0.00 in 900.00 W/m2
13:19 78.4 °F 60.4 °F 30.02 in NW 4.6 mph 17.2 mph 54% 0.00 in 904.00 W/m2
13:20 78.4 °F 59.3 °F 30.02 in WNW 14.9 mph 17.2 mph 52% 0.00 in 919.00 W/m2
13:21 78.3 °F 58.7 °F 30.02 in NW 10.3 mph 10.3 mph 51% 0.00 in 919.00 W/m2
13:23 78.0 °F 59.5 °F 30.02 in WNW 12.6 mph 12.6 mph 53% 0.00 in 918.00 W/m2
13:24 78.1 °F 60.1 °F 30.02 in NW 10.3 mph 14.9 mph 54% 0.00 in 925.00 W/m2
13:25 78.4 °F 60.4 °F 30.02 in NW 12.6 mph 14.9 mph 54% 0.00 in 937.00 W/m2
13:26 78.5 °F 60.0 °F 30.02 in WNW 6.9 mph 11.5 mph 53% 0.00 in 946.00 W/m2
13:30 78.2 °F 59.7 °F 30.02 in West 11.5 mph 16.1 mph 53% 0.00 in 942.00 W/m2
13:31 78.2 °F 59.7 °F 30.02 in WNW 6.9 mph 16.1 mph 53% 0.00 in 898.00 W/m2
13:32 78.2 °F 60.2 °F 30.02 in NW 6.9 mph 8.1 mph 54% 0.00 in 898.00 W/m2
13:34 78.3 °F 59.8 °F 30.02 in WNW 10.3 mph 14.9 mph 53% 0.00 in 909.00 W/m2
13:36 78.4 °F 59.9 °F 30.02 in WNW 10.3 mph 17.2 mph 53% 0.00 in 909.00 W/m2
13:37 78.4 °F 59.3 °F 30.02 in West 13.8 mph 13.8 mph 52% 0.00 in 956.00 W/m2
13:39 78.4 °F 61.4 °F 30.02 in NW 13.8 mph 16.1 mph 56% 0.00 in 956.00 W/m2
13:40 78.5 °F 60.5 °F 30.02 in NW 10.3 mph 16.1 mph 54% 0.00 in 990.00 W/m2
13:41 78.6 °F 59.5 °F 30.02 in West 8.1 mph 8.1 mph 52% 0.00 in 983.00 W/m2
13:42 78.6 °F 60.1 °F 30.02 in WNW 11.5 mph 14.9 mph 53% 0.00 in 981.00 W/m2
13:45 78.7 °F 60.2 °F 30.02 in West 8.1 mph 16.1 mph 53% 0.00 in 956.00 W/m2
13:46 78.8 °F 59.7 °F 30.02 in NW 10.3 mph 14.9 mph 52% 0.00 in 963.00 W/m2
13:47 78.8 °F 60.2 °F 30.02 in NW 5.8 mph 14.9 mph 53% 0.00 in 963.00 W/m2
13:48 78.9 °F 60.3 °F 30.02 in WNW 6.9 mph 14.9 mph 53% 0.00 in 1000.00 W/m2
13:51 79.3 °F 60.7 °F 30.02 in NW 6.9 mph 18.4 mph 53% 0.00 in 1063.00 W/m2
13:52 79.6 °F 61.0 °F 30.02 in NW 6.9 mph 14.9 mph 53% 0.00 in 1044.00 W/m2
13:53 79.8 °F 61.2 °F 30.02 in WNW 8.1 mph 14.9 mph 53% 0.00 in 1044.00 W/m2
13:54 79.9 °F 61.3 °F 30.02 in WNW 10.3 mph 14.9 mph 53% 0.00 in 1044.00 W/m2
13:56 79.7 °F 60.5 °F 30.01 in WNW 4.6 mph 4.6 mph 52% 0.00 in 297.00 W/m2
13:58 79.0 °F 59.9 °F 30.02 in NW 4.6 mph 10.3 mph 52% 0.00 in 271.00 W/m2
13:59 78.8 °F 59.2 °F 30.02 in WNW 11.5 mph 14.9 mph 51% 0.00 in 271.00 W/m2
14:02 78.5 °F 60.5 °F 30.02 in WNW 6.9 mph 9.2 mph 54% 0.00 in 995.00 W/m2
14:03 78.5 °F 60.5 °F 30.02 in North 11.5 mph 11.5 mph 54% 0.00 in 995.00 W/m2
14:04 78.9 °F 61.4 °F 30.01 in WNW 10.3 mph 12.6 mph 55% 0.00 in 1005.00 W/m2
14:06 79.2 °F 60.1 °F 30.02 in West 9.2 mph 12.6 mph 52% 0.00 in 1005.00 W/m2
14:07 79.1 °F 59.4 °F 30.02 in West 16.1 mph 18.4 mph 51% 0.00 in 1005.00 W/m2
14:08 78.8 °F 59.7 °F 30.02 in WNW 14.9 mph 18.4 mph 52% 0.00 in 1037.00 W/m2
14:09 78.8 °F 59.7 °F 30.02 in WNW 12.6 mph 18.4 mph 52% 0.00 in 1037.00 W/m2
14:13 77.7 °F 58.2 °F 30.02 in WNW 9.2 mph 14.9 mph 51% 0.00 in 192.00 W/m2
14:14 77.6 °F 58.1 °F 30.02 in WNW 9.2 mph 14.9 mph 51% 0.00 in 186.00 W/m2
14:15 77.4 °F 58.4 °F 30.02 in NW 12.6 mph 14.9 mph 52% 0.00 in 190.00 W/m2
14:17 77.0 °F 58.6 °F 30.02 in WNW 8.1 mph 13.8 mph 53% 0.00 in 232.00 W/m2
14:19 76.5 °F 59.2 °F 30.02 in NW 13.8 mph 16.1 mph 55% 0.00 in 204.00 W/m2
14:20 76.4 °F 59.1 °F 30.02 in WNW 10.3 mph 16.1 mph 55% 0.00 in 185.00 W/m2
14:21 76.3 °F 58.5 °F 30.02 in NW 8.1 mph 16.1 mph 54% 0.00 in 169.00 W/m2
14:22 76.2 °F 58.4 °F 30.02 in West 6.9 mph 9.2 mph 54% 0.00 in 146.00 W/m2
14:24 75.9 °F 58.6 °F 30.02 in WNW 8.1 mph 10.3 mph 55% 0.00 in 141.00 W/m2
14:25 75.9 °F 58.6 °F 30.02 in NW 5.8 mph 10.3 mph 55% 0.00 in 146.00 W/m2
14:26 75.8 °F 59.0 °F 30.02 in WNW 9.2 mph 11.5 mph 56% 0.00 in 156.00 W/m2
14:27 75.8 °F 59.0 °F 30.02 in WNW 5.8 mph 16.1 mph 56% 0.00 in 179.00 W/m2
14:30 75.8 °F 58.5 °F 30.02 in WNW 8.1 mph 16.1 mph 55% 0.00 in 220.00 W/m2
14:31 75.8 °F 58.5 °F 30.02 in West 4.6 mph 16.1 mph 55% 0.00 in 199.00 W/m2
14:32 75.9 °F 59.1 °F 30.02 in WNW 9.2 mph 9.2 mph 56% 0.00 in 172.00 W/m2
14:36 75.8 °F 59.0 °F 30.02 in West 5.8 mph 11.5 mph 56% 0.00 in 116.00 W/m2
14:37 75.8 °F 59.0 °F 30.02 in WNW 5.8 mph 9.2 mph 56% 0.00 in 116.00 W/m2
14:38 75.8 °F 59.5 °F 30.02 in WNW 8.1 mph 13.8 mph 57% 0.00 in 123.00 W/m2
14:39 75.7 °F 58.4 °F 30.02 in WNW 9.2 mph 14.9 mph 55% 0.00 in 165.00 W/m2
14:41 75.6 °F 58.8 °F 30.02 in WNW 10.3 mph 13.8 mph 56% 0.00 in 257.00 W/m2
14:42 75.6 °F 59.3 °F 30.02 in NW 9.2 mph 13.8 mph 57% 0.00 in 301.00 W/m2
14:43 75.6 °F 59.3 °F 30.02 in West 4.6 mph 13.8 mph 57% 0.00 in 346.00 W/m2
14:44 75.6 °F 59.3 °F 30.02 in WNW 8.1 mph 13.8 mph 57% 0.00 in 346.00 W/m2
14:46 75.7 °F 59.4 °F 30.02 in WNW 8.1 mph 14.9 mph 57% 0.00 in 362.00 W/m2
14:47 76.3 °F 60.5 °F 30.02 in NNW 10.3 mph 14.9 mph 58% 0.00 in 926.00 W/m2
14:49 77.1 °F 60.2 °F 30.02 in WNW 6.9 mph 14.9 mph 56% 0.00 in 909.00 W/m2
14:52 78.6 °F 60.6 °F 30.02 in WNW 8.1 mph 16.1 mph 54% 0.00 in 830.00 W/m2
14:54 78.9 °F 60.9 °F 30.02 in West 9.2 mph 16.1 mph 54% 0.00 in 900.00 W/m2
14:55 79.2 °F 60.6 °F 30.01 in WNW 17.2 mph 17.2 mph 53% 0.00 in 902.00 W/m2
14:58 79.5 °F 60.9 °F 30.01 in WNW 12.6 mph 16.1 mph 53% 0.00 in 888.00 W/m2
14:59 79.5 °F 60.3 °F 30.01 in WNW 8.1 mph 17.2 mph 52% 0.00 in 888.00 W/m2
15:00 79.4 °F 59.7 °F 30.01 in WNW 19.5 mph 19.5 mph 51% 0.00 in 888.00 W/m2
15:03 78.1 °F 58.0 °F 30.01 in NW 13.8 mph 14.9 mph 50% 0.00 in 302.00 W/m2
15:05 77.6 °F 58.6 °F 30.01 in WNW 6.9 mph 14.9 mph 52% 0.00 in 355.00 W/m2
15:06 77.4 °F 58.4 °F 30.01 in WNW 11.5 mph 14.9 mph 52% 0.00 in 355.00 W/m2
15:08 77.3 °F 58.3 °F 30.01 in NW 6.9 mph 11.5 mph 52% 0.00 in 260.00 W/m2
15:09 77.1 °F 58.7 °F 30.01 in West 12.6 mph 12.6 mph 53% 0.00 in 243.00 W/m2
15:10 77.1 °F 58.7 °F 30.01 in WNW 8.1 mph 17.2 mph 53% 0.00 in 243.00 W/m2
15:11 77.1 °F 59.2 °F 30.01 in WNW 5.8 mph 18.4 mph 54% 0.00 in 264.00 W/m2
15:13 77.0 °F 59.1 °F 30.01 in WNW 8.1 mph 18.4 mph 54% 0.00 in 287.00 W/m2
15:14 77.1 °F 59.2 °F 30.01 in NW 13.8 mph 18.4 mph 54% 0.00 in 397.00 W/m2
15:15 77.1 °F 59.2 °F 30.01 in West 14.9 mph 18.4 mph 54% 0.00 in 325.00 W/m2
15:17 77.3 °F 59.9 °F 30.01 in West 12.6 mph 12.6 mph 55% 0.00 in 364.00 W/m2
15:18 77.3 °F 58.8 °F 30.01 in NW 14.9 mph 16.1 mph 53% 0.00 in 413.00 W/m2
15:19 77.4 °F 59.0 °F 30.01 in WNW 14.9 mph 16.1 mph 53% 0.00 in 413.00 W/m2
15:21 77.7 °F 59.2 °F 30.02 in West 14.9 mph 16.1 mph 53% 0.00 in 828.00 W/m2
15:23 78.1 °F 58.5 °F 30.01 in West 12.6 mph 13.8 mph 51% 0.00 in 828.00 W/m2
15:24 78.0 °F 58.4 °F 30.02 in WSW 12.6 mph 13.8 mph 51% 0.00 in 264.00 W/m2
15:26 77.8 °F 58.8 °F 30.01 in WNW 9.2 mph 14.9 mph 52% 0.00 in 258.00 W/m2
15:27 77.4 °F 58.4 °F 30.01 in WNW 5.8 mph 16.1 mph 52% 0.00 in 276.00 W/m2
15:28 77.4 °F 58.4 °F 30.01 in WNW 10.3 mph 16.1 mph 52% 0.00 in 276.00 W/m2
15:29 77.1 °F 58.7 °F 30.01 in WNW 9.2 mph 16.1 mph 53% 0.00 in 297.00 W/m2
15:31 76.9 °F 58.5 °F 30.01 in West 10.3 mph 10.3 mph 53% 0.00 in 339.00 W/m2
15:33 77.2 °F 59.3 °F 30.01 in NW 6.9 mph 10.3 mph 54% 0.00 in 817.00 W/m2
15:34 77.4 °F 60.0 °F 30.01 in WNW 5.8 mph 11.5 mph 55% 0.00 in 817.00 W/m2
15:36 77.4 °F 59.0 °F 30.01 in NW 9.2 mph 11.5 mph 53% 0.00 in 211.00 W/m2
15:37 77.3 °F 58.8 °F 30.01 in WNW 9.2 mph 11.5 mph 53% 0.00 in 197.00 W/m2
15:39 77.1 °F 59.2 °F 30.01 in WNW 16.1 mph 16.1 mph 54% 0.00 in 190.00 W/m2
15:40 77.0 °F 59.1 °F 30.01 in West 11.5 mph 16.1 mph 54% 0.00 in 192.00 W/m2
15:42 76.9 °F 59.0 °F 30.01 in WNW 11.5 mph 13.8 mph 54% 0.00 in 229.00 W/m2
15:43 76.8 °F 59.4 °F 30.01 in West 8.1 mph 13.8 mph 55% 0.00 in 246.00 W/m2
15:44 76.7 °F 59.3 °F 30.01 in West 4.6 mph 13.8 mph 55% 0.00 in 255.00 W/m2
15:46 76.6 °F 59.2 °F 30.01 in WNW 8.1 mph 13.8 mph 55% 0.00 in 243.00 W/m2
15:48 76.5 °F 59.7 °F 30.01 in WNW 13.8 mph 14.9 mph 56% 0.00 in 225.00 W/m2
15:49 76.4 °F 59.6 °F 30.01 in NW 14.9 mph 14.9 mph 56% 0.00 in 213.00 W/m2
15:50 76.4 °F 59.6 °F 30.01 in NW 10.3 mph 16.1 mph 56% 0.00 in 213.00 W/m2
15:52 76.2 °F 59.4 °F 30.01 in NW 5.8 mph 13.8 mph 56% 0.00 in 213.00 W/m2
15:54 75.9 °F 59.6 °F 30.01 in WNW 8.1 mph 16.1 mph 57% 0.00 in 230.00 W/m2
15:55 75.9 °F 60.1 °F 30.01 in WNW 13.8 mph 16.1 mph 58% 0.00 in 230.00 W/m2
15:56 75.6 °F 59.8 °F 30.01 in WNW 11.5 mph 19.5 mph 58% 0.00 in 246.00 W/m2
15:58 75.2 °F 59.9 °F 30.01 in West 12.6 mph 19.5 mph 59% 0.00 in 255.00 W/m2
15:59 75.0 °F 60.2 °F 30.01 in NW 10.3 mph 19.5 mph 60% 0.00 in 251.00 W/m2
16:00 74.6 °F 60.3 °F 30.01 in West 8.1 mph 19.5 mph 61% 0.00 in 250.00 W/m2
16:01 74.5 °F 60.2 °F 30.01 in West 6.9 mph 19.5 mph 61% 0.00 in 251.00 W/m2
16:02 74.3 °F 60.5 °F 30.01 in WNW 9.2 mph 10.3 mph 62% 0.00 in 283.00 W/m2
16:03 74.3 °F 60.9 °F 30.01 in West 2.3 mph 10.3 mph 63% 0.00 in 278.00 W/m2
16:05 74.3 °F 61.3 °F 30.01 in West 3.4 mph 10.3 mph 64% 0.00 in 278.00 W/m2
16:06 74.4 °F 61.4 °F 30.01 in NW 3.4 mph 10.3 mph 64% 0.00 in 278.00 W/m2
16:07 74.4 °F 61.0 °F 30.01 in NW 4.6 mph 5.8 mph 63% 0.00 in 251.00 W/m2
16:09 74.5 °F 61.1 °F 30.01 in NW 2.3 mph 8.1 mph 63% 0.00 in 239.00 W/m2
16:10 74.4 °F 61.0 °F 30.01 in WNW 3.4 mph 8.1 mph 63% 0.00 in 223.00 W/m2
16:11 74.4 °F 61.0 °F 30.01 in WNW 5.8 mph 5.8 mph 63% 0.00 in 214.00 W/m2
16:12 74.4 °F 61.0 °F 30.01 in WNW 3.4 mph 6.9 mph 63% 0.00 in 207.00 W/m2
16:13 74.3 °F 60.9 °F 30.01 in WNW 4.6 mph 6.9 mph 63% 0.00 in 199.00 W/m2
16:16 74.3 °F 61.8 °F 30.01 in WNW 3.4 mph 6.9 mph 65% 0.00 in 165.00 W/m2
16:17 74.3 °F 61.3 °F 30.00 in West 3.4 mph 8.1 mph 64% 0.00 in 158.00 W/m2
16:18 74.3 °F 61.3 °F 30.00 in WNW 5.8 mph 8.1 mph 64% 0.00 in 149.00 W/m2
16:19 74.4 °F 61.4 °F 30.00 in WNW 4.6 mph 8.1 mph 64% 0.00 in 137.00 W/m2
16:22 74.4 °F 61.9 °F 30.00 in WNW 4.6 mph 5.8 mph 65% 0.00 in 142.00 W/m2
16:23 74.4 °F 61.4 °F 30.00 in NW 5.8 mph 8.1 mph 64% 0.00 in 146.00 W/m2
16:24 74.5 °F 62.0 °F 30.00 in WNW 4.6 mph 8.1 mph 65% 0.00 in 156.00 W/m2
16:25 74.5 °F 62.0 °F 30.00 in WNW 6.9 mph 8.1 mph 65% 0.00 in 171.00 W/m2
16:26 74.5 °F 62.0 °F 30.00 in WNW 4.6 mph 4.6 mph 65% 0.00 in 218.00 W/m2
16:28 74.6 °F 62.5 °F 30.00 in WNW 4.6 mph 5.8 mph 66% 0.00 in 283.00 W/m2
16:29 74.7 °F 62.6 °F 30.00 in WNW 5.8 mph 5.8 mph 66% 0.00 in 325.00 W/m2
16:31 75.0 °F 62.5 °F 30.00 in WNW 3.4 mph 5.8 mph 65% 0.00 in 297.00 W/m2
16:32 75.1 °F 62.1 °F 30.00 in WNW 3.4 mph 5.8 mph 64% 0.00 in 297.00 W/m2
16:35 75.1 °F 62.1 °F 30.00 in NW 10.3 mph 11.5 mph 64% 0.00 in 174.00 W/m2
16:36 75.1 °F 61.7 °F 30.00 in WNW 4.6 mph 5.8 mph 63% 0.00 in 149.00 W/m2
16:37 75.2 °F 61.8 °F 30.00 in NW 9.2 mph 9.2 mph 63% 0.00 in 149.00 W/m2
16:40 75.1 °F 61.7 °F 30.00 in WNW 8.1 mph 12.6 mph 63% 0.00 in 102.00 W/m2
16:41 75.1 °F 61.7 °F 30.00 in WNW 6.9 mph 12.6 mph 63% 0.00 in 102.00 W/m2
16:42 75.0 °F 62.0 °F 30.00 in WNW 14.9 mph 17.2 mph 64% 0.00 in 100.00 W/m2
16:43 74.9 °F 61.0 °F 30.00 in West 11.5 mph 17.2 mph 62% 0.00 in 104.00 W/m2
16:46 74.3 °F 60.9 °F 30.00 in NW 9.2 mph 17.2 mph 63% 0.00 in 123.00 W/m2
16:48 73.9 °F 61.0 °F 30.00 in NW 9.2 mph 10.3 mph 64% 0.00 in 135.00 W/m2
16:49 73.7 °F 61.2 °F 30.00 in West 4.6 mph 10.3 mph 65% 0.00 in 132.00 W/m2
16:51 73.3 °F 61.7 °F 30.00 in WNW 5.8 mph 6.9 mph 67% 0.00 in 139.00 W/m2
16:53 73.1 °F 61.5 °F 30.00 in West 6.9 mph 8.1 mph 67% 0.00 in 141.00 W/m2
16:54 73.1 °F 61.5 °F 30.00 in West 3.4 mph 8.1 mph 67% 0.00 in 141.00 W/m2
16:55 73.0 °F 61.8 °F 30.00 in West 5.8 mph 8.1 mph 68% 0.00 in 128.00 W/m2
16:57 72.9 °F 61.7 °F 30.00 in West 5.8 mph 11.5 mph 68% 0.00 in 111.00 W/m2
16:58 72.8 °F 62.0 °F 30.00 in West 3.4 mph 11.5 mph 69% 0.00 in 102.00 W/m2
16:59 72.8 °F 61.6 °F 30.00 in West 3.4 mph 11.5 mph 68% 0.00 in 93.00 W/m2
17:00 72.7 °F 61.5 °F 30.00 in West 5.8 mph 11.5 mph 68% 0.00 in 93.00 W/m2
17:01 72.6 °F 62.7 °F 30.00 in West 4.6 mph 4.6 mph 71% 0.00 in 76.00 W/m2
17:02 72.6 °F 61.9 °F 30.00 in West 4.6 mph 4.6 mph 69% 0.00 in 70.00 W/m2
17:04 72.6 °F 62.3 °F 30.00 in West 3.4 mph 5.8 mph 70% 0.00 in 58.00 W/m2
17:05 72.6 °F 61.9 °F 30.00 in West 4.6 mph 5.8 mph 69% 0.00 in 53.00 W/m2
17:07 72.6 °F 62.7 °F 30.00 in West 6.9 mph 6.9 mph 71% 0.00 in 42.00 W/m2
17:08 72.5 °F 62.6 °F 30.00 in West 4.6 mph 6.9 mph 71% 0.00 in 37.00 W/m2
17:09 72.4 °F 62.5 °F 30.00 in WNW 6.9 mph 9.2 mph 71% 0.00 in 30.00 W/m2
17:10 72.3 °F 62.4 °F 30.00 in WNW 5.8 mph 9.2 mph 71% 0.00 in 25.00 W/m2
17:12 72.1 °F 63.0 °F 30.01 in NW 10.3 mph 10.3 mph 73% 0.01 in 23.00 W/m2
17:13 72.0 °F 63.3 °F 30.01 in NNW 11.5 mph 11.5 mph 74% 0.01 in 23.00 W/m2
17:14 71.9 °F 63.2 °F 30.01 in NW 18.4 mph 18.4 mph 74% 0.01 in 23.00 W/m2
17:15 71.3 °F 63.0 °F 30.02 in NW 13.8 mph 29.9 mph 75% 0.03 in 26.00 W/m2
17:16 71.0 °F 62.7 °F 30.02 in NW 11.5 mph 29.9 mph 75% 0.03 in 28.00 W/m2
17:19 68.7 °F 61.9 °F 30.03 in North 14.9 mph 21.9 mph 79% 0.05 in 37.00 W/m2
17:20 68.6 °F 61.8 °F 30.03 in NNW 16.1 mph 21.9 mph 79% 0.05 in 37.00 W/m2
17:21 68.0 °F 61.6 °F 30.03 in NNW 11.5 mph 24.1 mph 80% 0.05 in 49.00 W/m2
17:25 66.3 °F 61.3 °F 30.03 in North 8.1 mph 14.9 mph 84% 0.07 in 67.00 W/m2
17:26 66.0 °F 61.4 °F 30.03 in NW 8.1 mph 14.9 mph 85% 0.07 in 90.00 W/m2
17:27 65.8 °F 61.2 °F 30.03 in NW 10.3 mph 12.6 mph 85% 0.07 in 104.00 W/m2
17:31 65.3 °F 61.7 °F 30.03 in NW 4.6 mph 13.8 mph 88% 0.08 in 144.00 W/m2
17:32 65.3 °F 61.7 °F 30.02 in NW 5.8 mph 8.1 mph 88% 0.08 in 144.00 W/m2
17:33 65.2 °F 61.9 °F 30.02 in NW 5.8 mph 9.2 mph 89% 0.08 in 160.00 W/m2
17:34 65.1 °F 61.8 °F 30.02 in NW 5.8 mph 9.2 mph 89% 0.08 in 165.00 W/m2
17:36 65.2 °F 62.2 °F 30.02 in NW 8.1 mph 8.1 mph 90% 0.09 in 211.00 W/m2
17:37 65.2 °F 62.2 °F 30.02 in WNW 6.9 mph 10.3 mph 90% 0.09 in 246.00 W/m2
17:38 65.3 °F 62.3 °F 30.02 in WNW 9.2 mph 10.3 mph 90% 0.09 in 297.00 W/m2
17:40 65.6 °F 62.6 °F 30.02 in NW 5.8 mph 10.3 mph 90% 0.09 in 406.00 W/m2
17:42 66.0 °F 63.3 °F 30.02 in NW 6.9 mph 10.3 mph 91% 0.09 in 461.00 W/m2
17:43 66.2 °F 63.5 °F 30.02 in WNW 6.9 mph 10.3 mph 91% 0.09 in 475.00 W/m2
17:44 66.3 °F 63.3 °F 30.02 in WNW 8.1 mph 10.3 mph 90% 0.09 in 487.00 W/m2
17:46 66.8 °F 63.5 °F 30.01 in WNW 8.1 mph 10.3 mph 89% 0.09 in 478.00 W/m2
17:47 67.0 °F 63.3 °F 30.01 in WNW 8.1 mph 11.5 mph 88% 0.09 in 452.00 W/m2
17:49 67.4 °F 63.1 °F 30.01 in WNW 9.2 mph 11.5 mph 86% 0.09 in 439.00 W/m2
17:51 67.7 °F 63.4 °F 30.01 in NW 5.8 mph 11.5 mph 86% 0.09 in 424.00 W/m2
17:52 68.0 °F 63.7 °F 30.01 in West 5.8 mph 8.1 mph 86% 0.09 in 418.00 W/m2
17:53 68.2 °F 63.9 °F 30.01 in West 12.6 mph 12.6 mph 86% 0.09 in 406.00 W/m2
17:56 68.6 °F 63.9 °F 30.01 in WNW 8.1 mph 12.6 mph 85% 0.09 in 285.00 W/m2
17:57 68.6 °F 63.9 °F 30.01 in NW 8.1 mph 9.2 mph 85% 0.09 in 330.00 W/m2
17:58 68.6 °F 63.9 °F 30.01 in NW 4.6 mph 9.2 mph 85% 0.09 in 330.00 W/m2
18:01 68.6 °F 63.9 °F 30.01 in West 6.9 mph 6.9 mph 85% 0.09 in 158.00 W/m2
18:02 68.6 °F 63.9 °F 30.01 in WNW 6.9 mph 10.3 mph 85% 0.09 in 167.00 W/m2
18:03 68.5 °F 63.5 °F 30.01 in West 5.8 mph 10.3 mph 84% 0.09 in 181.00 W/m2
18:04 68.4 °F 63.0 °F 30.01 in WSW 2.3 mph 10.3 mph 83% 0.09 in 172.00 W/m2
18:06 68.5 °F 63.5 °F 30.01 in NW 5.8 mph 9.2 mph 84% 0.09 in 160.00 W/m2
18:08 68.5 °F 63.1 °F 30.01 in West 6.9 mph 9.2 mph 83% 0.09 in 295.00 W/m2
18:09 68.5 °F 62.5 °F 30.01 in West 6.9 mph 10.3 mph 81% 0.09 in 308.00 W/m2
18:11 68.6 °F 62.5 °F 30.01 in WNW 6.9 mph 10.3 mph 81% 0.09 in 250.00 W/m2
18:12 68.6 °F 62.5 °F 30.01 in West 6.9 mph 11.5 mph 81% 0.09 in 271.00 W/m2
18:13 68.7 °F 62.3 °F 30.01 in West 5.8 mph 11.5 mph 80% 0.09 in 306.00 W/m2
18:14 68.7 °F 62.3 °F 30.01 in NW 6.9 mph 11.5 mph 80% 0.09 in 297.00 W/m2
18:15 68.7 °F 62.3 °F 30.01 in West 8.1 mph 11.5 mph 80% 0.09 in 281.00 W/m2
18:16 68.7 °F 61.9 °F 30.01 in WSW 6.9 mph 11.5 mph 79% 0.09 in 255.00 W/m2
18:17 68.7 °F 61.9 °F 30.01 in WNW 6.9 mph 6.9 mph 79% 0.06 in 257.00 W/m2
18:19 68.7 °F 61.6 °F 30.01 in West 11.5 mph 12.6 mph 78% 0.06 in 250.00 W/m2
18:20 68.7 °F 61.6 °F 30.01 in West 6.9 mph 12.6 mph 78% 0.06 in 234.00 W/m2
18:21 68.7 °F 61.2 °F 30.01 in West 10.3 mph 13.8 mph 77% 0.06 in 237.00 W/m2
18:22 68.7 °F 61.2 °F 30.01 in West 4.6 mph 10.3 mph 77% 0.03 in 213.00 W/m2
18:25 68.6 °F 60.7 °F 30.01 in West 9.2 mph 10.3 mph 76% 0.03 in 213.00 W/m2
18:26 68.5 °F 61.0 °F 30.01 in WNW 5.8 mph 6.9 mph 77% 0.02 in 155.00 W/m2
18:27 68.4 °F 60.5 °F 30.01 in West 4.6 mph 8.1 mph 76% 0.02 in 186.00 W/m2
18:28 68.5 °F 60.6 °F 30.01 in West 5.8 mph 8.1 mph 76% 0.02 in 186.00 W/m2
18:30 68.5 °F 61.4 °F 30.00 in West 5.8 mph 8.1 mph 78% 0.02 in 178.00 W/m2
18:31 68.4 °F 61.3 °F 30.00 in West 3.4 mph 5.8 mph 78% 0.01 in 195.00 W/m2
18:32 68.3 °F 60.8 °F 30.00 in West 4.6 mph 6.9 mph 77% 0.01 in 183.00 W/m2
18:35 68.3 °F 60.8 °F 30.00 in West 6.9 mph 10.3 mph 77% 0.01 in 153.00 W/m2
18:37 68.3 °F 60.8 °F 30.00 in WSW 9.2 mph 11.5 mph 77% 0.00 in 83.00 W/m2
18:38 68.4 °F 60.9 °F 30.00 in West 6.9 mph 11.5 mph 77% 0.00 in 79.00 W/m2
18:39 68.3 °F 60.8 °F 30.00 in West 5.8 mph 11.5 mph 77% 0.00 in 69.00 W/m2
18:40 68.3 °F 60.8 °F 30.00 in West 4.6 mph 11.5 mph 77% 0.00 in 69.00 W/m2
18:43 68.1 °F 60.3 °F 30.00 in WSW 10.3 mph 11.5 mph 76% 0.00 in 51.00 W/m2
18:45 67.9 °F 60.1 °F 30.01 in West 11.5 mph 11.5 mph 76% 0.00 in 47.00 W/m2
18:46 67.9 °F 60.1 °F 30.01 in West 8.1 mph 11.5 mph 76% 0.00 in 47.00 W/m2
18:47 67.7 °F 59.9 °F 30.01 in WSW 11.5 mph 11.5 mph 76% 0.00 in 44.00 W/m2
18:48 67.7 °F 59.9 °F 30.01 in WSW 6.9 mph 11.5 mph 76% 0.00 in 42.00 W/m2
18:51 67.5 °F 59.7 °F 30.01 in West 5.8 mph 11.5 mph 76% 0.00 in 35.00 W/m2
18:52 67.4 °F 60.0 °F 30.01 in WSW 5.8 mph 8.1 mph 77% 0.00 in 35.00 W/m2
18:54 67.3 °F 59.5 °F 30.01 in WSW 6.9 mph 13.8 mph 76% 0.00 in 35.00 W/m2
18:56 67.2 °F 59.4 °F 30.01 in West 8.1 mph 13.8 mph 76% 0.00 in 35.00 W/m2
18:57 67.1 °F 59.7 °F 30.01 in WNW 8.1 mph 10.3 mph 77% 0.00 in 35.00 W/m2
18:58 66.9 °F 59.1 °F 30.01 in West 10.3 mph 11.5 mph 76% 0.00 in 35.00 W/m2
19:00 66.8 °F 59.0 °F 30.01 in WSW 5.8 mph 11.5 mph 76% 0.00 in 35.00 W/m2
19:01 66.8 °F 59.0 °F 30.01 in West 5.8 mph 11.5 mph 76% 0.00 in 35.00 W/m2
19:02 66.7 °F 59.3 °F 30.01 in West 6.9 mph 9.2 mph 77% 0.00 in 35.00 W/m2
19:03 66.6 °F 59.2 °F 30.01 in West 8.1 mph 9.2 mph 77% 0.00 in 35.00 W/m2
19:05 66.5 °F 59.4 °F 30.00 in West 5.8 mph 9.2 mph 78% 0.00 in 35.00 W/m2
19:06 66.3 °F 59.2 °F 30.00 in WSW 4.6 mph 9.2 mph 78% 0.00 in 37.00 W/m2
19:09 66.1 °F 59.0 °F 30.00 in West 5.8 mph 6.9 mph 78% 0.00 in 40.00 W/m2
19:10 66.1 °F 59.0 °F 30.01 in West 2.3 mph 6.9 mph 78% 0.00 in 40.00 W/m2
19:11 66.1 °F 59.0 °F 30.00 in West 5.8 mph 6.9 mph 78% 0.00 in 40.00 W/m2
19:12 66.1 °F 59.0 °F 30.00 in West 3.4 mph 6.9 mph 78% 0.00 in 42.00 W/m2
19:15 66.1 °F 59.0 °F 30.00 in WSW 4.6 mph 6.9 mph 78% 0.00 in 40.00 W/m2
19:16 66.0 °F 59.0 °F 30.00 in West 3.4 mph 6.9 mph 78% 0.00 in 40.00 W/m2
19:17 66.0 °F 59.0 °F 30.00 in West 5.8 mph 5.8 mph 78% 0.00 in 40.00 W/m2
19:20 65.9 °F 59.2 °F 30.00 in West 4.6 mph 6.9 mph 79% 0.00 in 37.00 W/m2
19:21 65.8 °F 59.1 °F 30.00 in West 2.3 mph 6.9 mph 79% 0.00 in 37.00 W/m2
19:22 65.8 °F 59.1 °F 30.01 in WNW 3.4 mph 5.8 mph 79% 0.00 in 35.00 W/m2
19:23 65.7 °F 59.0 °F 30.01 in WNW 6.9 mph 6.9 mph 79% 0.00 in 33.00 W/m2
19:26 65.7 °F 59.0 °F 30.01 in West 4.6 mph 4.6 mph 79% 0.00 in 30.00 W/m2
19:27 65.7 °F 59.0 °F 30.01 in West 4.6 mph 4.6 mph 79% 0.00 in 30.00 W/m2
19:28 65.7 °F 59.0 °F 30.01 in West 5.8 mph 8.1 mph 79% 0.00 in 30.00 W/m2
19:29 65.7 °F 59.0 °F 30.01 in West 4.6 mph 8.1 mph 79% 0.00 in 28.00 W/m2
19:32 65.8 °F 59.1 °F 30.00 in West 6.9 mph 8.1 mph 79% 0.00 in 26.00 W/m2
19:34 65.7 °F 59.0 °F 30.01 in West 4.6 mph 8.1 mph 79% 0.00 in 25.00 W/m2
19:35 65.7 °F 59.4 °F 30.01 in West 3.4 mph 8.1 mph 80% 0.00 in 23.00 W/m2
19:37 65.6 °F 59.3 °F 30.00 in West 4.6 mph 6.9 mph 80% 0.00 in 23.00 W/m2
19:39 65.6 °F 59.3 °F 30.01 in West 2.3 mph 8.1 mph 80% 0.00 in 21.00 W/m2
19:40 65.6 °F 59.3 °F 30.01 in West 3.4 mph 8.1 mph 80% 0.00 in 19.00 W/m2
19:41 65.5 °F 59.5 °F 30.01 in West 2.3 mph 8.1 mph 81% 0.00 in 19.00 W/m2
19:43 65.4 °F 59.1 °F 30.01 in West 4.6 mph 6.9 mph 80% 0.00 in 19.00 W/m2
19:44 65.4 °F 59.4 °F 30.01 in West 3.4 mph 6.9 mph 81% 0.00 in 19.00 W/m2
19:46 65.3 °F 59.3 °F 30.01 in West 5.8 mph 6.9 mph 81% 0.00 in 18.00 W/m2
19:47 65.3 °F 59.3 °F 30.01 in West 3.4 mph 5.8 mph 81% 0.00 in 18.00 W/m2
19:48 65.2 °F 59.2 °F 30.01 in West 4.6 mph 5.8 mph 81% 0.00 in 18.00 W/m2
19:49 65.2 °F 59.2 °F 30.01 in West 4.6 mph 5.8 mph 81% 0.00 in 18.00 W/m2
19:50 65.1 °F 59.1 °F 30.01 in West 3.4 mph 5.8 mph 81% 0.00 in 18.00 W/m2
19:52 65.1 °F 59.1 °F 30.01 in West 3.4 mph 5.8 mph 81% 0.00 in 16.00 W/m2
19:54 65.1 °F 59.1 °F 30.01 in West 5.8 mph 5.8 mph 81% 0.00 in 14.00 W/m2
Peotone Weather Data
Compliments of Weather Underground